Wetterdaten: Dienstag, 29.07.2014
Datum Zeit Temp. Aussen +5cm Feuchte Auss Luftdruck Regen Sonnenschein Regendauer UV Solar Windben
29.07.2014 00:00 18,3 C 17,2 C 99 % 1010,8 hPa 0,0 l/m 0 min 0 min 0,0 UV-I 0 W/m 2,1 km/h (1 Bft)
29.07.2014 00:02 18,3 C 17,2 C 99 % 1010,9 hPa 0,0 l/m 0 min 0 min 0,0 UV-I 0 W/m 0,0 km/h (0 Bft)
29.07.2014 00:05 18,3 C 16,7 C 99 % 1010,8 hPa 0,0 l/m 0 min 0 min 0,0 UV-I 0 W/m 4,2 km/h (1 Bft)
29.07.2014 00:06 18,3 C 16,7 C 99 % 1010,8 hPa 0,0 l/m 0 min 0 min 0,0 UV-I 0 W/m 0,0 km/h (0 Bft)
29.07.2014 00:08 18,2 C 16,7 C 99 % 1010,9 hPa 0,0 l/m 0 min 0 min 0,0 UV-I 0 W/m 0,0 km/h (0 Bft)
29.07.2014 00:10 18,2 C 16,7 C 99 % 1010,9 hPa 0,0 l/m 0 min 0 min 0,0 UV-I 0 W/m 2,1 km/h (1 Bft)
29.07.2014 00:12 18,2 C 16,7 C 99 % 1010,8 hPa 0,0 l/m 0 min 0 min 0,0 UV-I 0 W/m 0,0 km/h (0 Bft)
29.07.2014 00:14 18,2 C 16,7 C 99 % 1010,9 hPa 0,0 l/m 0 min 0 min 0,0 UV-I 0 W/m 0,0 km/h (0 Bft)
29.07.2014 00:16 18,2 C 16,7 C 99 % 1010,8 hPa 0,0 l/m 0 min 0 min 0,0 UV-I 0 W/m 0,0 km/h (0 Bft)
29.07.2014 00:18 18,2 C 16,7 C 99 % 1010,9 hPa 0,0 l/m 0 min 0 min 0,0 UV-I 0 W/m 0,0 km/h (0 Bft)
29.07.2014 00:20 18,2 C 16,7 C 99 % 1010,8 hPa 0,0 l/m 0 min 0 min 0,0 UV-I 0 W/m 8,4 km/h (2 Bft)
29.07.2014 00:22 18,1 C 16,7 C 99 % 1010,8 hPa 0,0 l/m 0 min 0 min 0,0 UV-I 0 W/m 8,4 km/h (2 Bft)
29.07.2014 00:24 18,1 C 16,7 C 99 % 1010,8 hPa 0,0 l/m 0 min 0 min 0,0 UV-I 0 W/m 0,0 km/h (0 Bft)
29.07.2014 00:26 18,1 C 16,7 C 99 % 1010,8 hPa 0,0 l/m 0 min 0 min 0,0 UV-I 0 W/m 6,3 km/h (2 Bft)
29.07.2014 00:28 18,1 C 16,7 C 99 % 1010,8 hPa 0,0 l/m 0 min 0 min 0,0 UV-I 0 W/m 6,3 km/h (2 Bft)
29.07.2014 00:30 18,0 C 16,7 C 99 % 1010,8 hPa 0,0 l/m 0 min 0 min 0,0 UV-I 0 W/m 6,3 km/h (2 Bft)
29.07.2014 00:32 18,0 C 16,7 C 99 % 1010,8 hPa 0,0 l/m 0 min 0 min 0,0 UV-I 0 W/m 4,2 km/h (1 Bft)
29.07.2014 00:34 17,9 C 16,7 C 99 % 1010,8 hPa 0,0 l/m 0 min 0 min 0,0 UV-I 0 W/m 8,4 km/h (2 Bft)
29.07.2014 00:36 18,0 C 16,7 C 100 % 1010,7 hPa 0,0 l/m 0 min 0 min 0,0 UV-I 0 W/m 12,6 km/h (3 Bft)
29.07.2014 00:38 18,0 C 16,7 C 100 % 1010,8 hPa 0,0 l/m 0 min 0 min 0,0 UV-I 0 W/m 12,6 km/h (3 Bft)
29.07.2014 00:40 17,9 C 16,7 C 100 % 1010,7 hPa 0,0 l/m 0 min 0 min 0,0 UV-I 0 W/m 10,5 km/h (2 Bft)
29.07.2014 00:42 17,9 C 16,7 C 100 % 1010,7 hPa 0,0 l/m 0 min 0 min 0,0 UV-I 0 W/m 10,5 km/h (2 Bft)
29.07.2014 00:44 17,9 C 16,7 C 100 % 1010,7 hPa 0,0 l/m 0 min 0 min 0,0 UV-I 0 W/m 10,5 km/h (2 Bft)
29.07.2014 00:46 17,9 C 16,7 C 100 % 1010,7 hPa 0,0 l/m 0 min 0 min 0,0 UV-I 0 W/m 6,3 km/h (2 Bft)
29.07.2014 00:48 17,9 C 16,7 C 100 % 1010,7 hPa 0,0 l/m 0 min 0 min 0,0 UV-I 0 W/m 6,3 km/h (2 Bft)
29.07.2014 00:50 17,9 C 16,7 C 100 % 1010,7 hPa 0,0 l/m 0 min 0 min 0,0 UV-I 0 W/m 8,4 km/h (2 Bft)
29.07.2014 00:52 17,9 C 16,7 C 100 % 1010,7 hPa 0,0 l/m 0 min 0 min 0,0 UV-I 0 W/m 6,3 km/h (2 Bft)
29.07.2014 00:54 17,9 C 16,7 C 100 % 1010,7 hPa 0,0 l/m 0 min 0 min 0,0 UV-I 0 W/m 8,4 km/h (2 Bft)
29.07.2014 00:56 17,8 C 16,7 C 99 % 1010,7 hPa 0,0 l/m 0 min 0 min 0,0 UV-I 0 W/m 6,3 km/h (2 Bft)
29.07.2014 00:58 17,8 C 16,7 C 99 % 1010,7 hPa 0,0 l/m 0 min 0 min 0,0 UV-I 0 W/m 4,2 km/h (1 Bft)
29.07.2014 01:00 17,8 C 16,7 C 99 % 1010,7 hPa 0,0 l/m 0 min 0 min 0,0 UV-I 0 W/m 6,3 km/h (2 Bft)
29.07.2014 01:02 17,8 C 16,7 C 99 % 1010,6 hPa 0,0 l/m 0 min 0 min 0,0 UV-I 0 W/m 2,1 km/h (1 Bft)
29.07.2014 01:04 17,8 C 16,7 C 99 % 1010,7 hPa 0,0 l/m 0 min 0 min 0,0 UV-I 0 W/m 2,1 km/h (1 Bft)
29.07.2014 01:06 17,8 C 16,7 C 99 % 1010,7 hPa 0,0 l/m 0 min 0 min 0,0 UV-I 0 W/m 0,0 km/h (0 Bft)
29.07.2014 01:08 17,8 C 16,7 C 99 % 1010,7 hPa 0,0 l/m 0 min 0 min 0,0 UV-I 0 W/m 0,0 km/h (0 Bft)
29.07.2014 01:10 17,8 C 16,7 C 99 % 1010,7 hPa 0,0 l/m 0 min 0 min 0,0 UV-I 0 W/m 0,0 km/h (0 Bft)
29.07.2014 01:12 17,7 C 16,7 C 99 % 1010,7 hPa 0,0 l/m 0 min 0 min 0,0 UV-I 0 W/m 0,0 km/h (0 Bft)
29.07.2014 01:14 17,7 C 16,7 C 99 % 1010,6 hPa 0,0 l/m 0 min 0 min 0,0 UV-I 0 W/m 0,0 km/h (0 Bft)
29.07.2014 01:16 17,7 C 16,7 C 100 % 1010,6 hPa 0,0 l/m 0 min 0 min 0,0 UV-I 0 W/m 0,0 km/h (0 Bft)
29.07.2014 01:18 17,7 C 16,1 C 100 % 1010,6 hPa 0,0 l/m 0 min 0 min 0,0 UV-I 0 W/m 0,0 km/h (0 Bft)
29.07.2014 01:20 17,7 C 16,7 C 100 % 1010,6 hPa 0,0 l/m 0 min 0 min 0,0 UV-I 0 W/m 2,1 km/h (1 Bft)
29.07.2014 01:22 17,7 C 16,7 C 100 % 1010,6 hPa 0,0 l/m 0 min 0 min 0,0 UV-I 0 W/m 0,0 km/h (0 Bft)
29.07.2014 01:24 17,7 C 16,7 C 100 % 1010,6 hPa 0,0 l/m 0 min 0 min 0,0 UV-I 0 W/m 2,1 km/h (1 Bft)
29.07.2014 01:26 17,7 C 16,7 C 100 % 1010,6 hPa 0,0 l/m 0 min 0 min 0,0 UV-I 0 W/m 0,0 km/h (0 Bft)
29.07.2014 01:28 17,7 C 16,7 C 100 % 1010,6 hPa 0,0 l/m 0 min 0 min 0,0 UV-I 0 W/m 0,0 km/h (0 Bft)
29.07.2014 01:30 17,7 C 16,7 C 100 % 1010,6 hPa 0,0 l/m 0 min 0 min 0,0 UV-I 0 W/m 2,1 km/h (1 Bft)
29.07.2014 01:32 17,6 C 16,7 C 100 % 1010,6 hPa 0,0 l/m 0 min 0 min 0,0 UV-I 0 W/m 0,0 km/h (0 Bft)
29.07.2014 01:34 17,6 C 16,1 C 100 % 1010,7 hPa 0,0 l/m 0 min 0 min 0,0 UV-I 0 W/m 0,0 km/h (0 Bft)
29.07.2014 01:36 17,6 C 16,1 C 100 % 1010,7 hPa 0,0 l/m 0 min 0 min 0,0 UV-I 0 W/m 0,0 km/h (0 Bft)
29.07.2014 01:38 17,6 C 16,1 C 100 % 1010,7 hPa 0,0 l/m 0 min 0 min 0,0 UV-I 0 W/m 0,0 km/h (0 Bft)
29.07.2014 01:40 17,6 C 16,1 C 100 % 1010,7 hPa 0,0 l/m 0 min 0 min 0,0 UV-I 0 W/m 2,1 km/h (1 Bft)
29.07.2014 01:42 17,6 C 16,1 C 100 % 1010,7 hPa 0,0 l/m 0 min 0 min 0,0 UV-I 0 W/m 0,0 km/h (0 Bft)
29.07.2014 01:44 17,5 C 16,1 C 100 % 1010,7 hPa 0,0 l/m 0 min 0 min 0,0 UV-I 0 W/m 6,3 km/h (2 Bft)
29.07.2014 01:46 17,5 C 16,1 C 100 % 1010,7 hPa 0,0 l/m 0 min 0 min 0,0 UV-I 0 W/m 0,0 km/h (0 Bft)
29.07.2014 01:48 17,5 C 16,1 C 100 % 1010,7 hPa 0,0 l/m 0 min 0 min 0,0 UV-I 0 W/m 4,2 km/h (1 Bft)
29.07.2014 01:50 17,4 C 16,1 C 100 % 1010,6 hPa 0,0 l/m 0 min 0 min 0,0 UV-I 0 W/m 0,0 km/h (0 Bft)
29.07.2014 01:52 17,4 C 16,1 C 100 % 1010,6 hPa 0,0 l/m 0 min 0 min 0,0 UV-I 0 W/m 2,1 km/h (1 Bft)
29.07.2014 01:54 17,4 C 16,1 C 100 % 1010,6 hPa 0,0 l/m 0 min 0 min 0,0 UV-I 0 W/m 6,3 km/h (2 Bft)
29.07.2014 01:56 17,4 C 16,1 C 100 % 1010,6 hPa 0,0 l/m 0 min 0 min 0,0 UV-I 0 W/m 8,4 km/h (2 Bft)
29.07.2014 01:58 17,4 C 16,1 C 100 % 1010,5 hPa 0,0 l/m 0 min 0 min 0,0 UV-I 0 W/m 6,3 km/h (2 Bft)
29.07.2014 02:00 17,4 C 16,1 C 100 % 1010,5 hPa 0,0 l/m 0 min 0 min 0,0 UV-I 0 W/m 6,3 km/h (2 Bft)
29.07.2014 02:02 17,4 C 16,1 C 100 % 1010,4 hPa 0,0 l/m 0 min 0 min 0,0 UV-I 0 W/m 6,3 km/h (2 Bft)
29.07.2014 02:04 17,4 C 16,1 C 100 % 1010,5 hPa 0,0 l/m 0 min 0 min 0,0 UV-I 0 W/m 0,0 km/h (0 Bft)
29.07.2014 02:06 17,4 C 16,1 C 100 % 1010,4 hPa 0,0 l/m 0 min 0 min 0,0 UV-I 0 W/m 2,1 km/h (1 Bft)
29.07.2014 02:08 17,4 C 16,1 C 100 % 1010,4 hPa 0,0 l/m 0 min 0 min 0,0 UV-I 0 W/m 0,0 km/h (0 Bft)
29.07.2014 02:10 17,3 C 16,1 C 100 % 1010,4 hPa 0,0 l/m 0 min 0 min 0,0 UV-I 0 W/m 0,0 km/h (0 Bft)
29.07.2014 02:12 17,3 C 16,1 C 100 % 1010,3 hPa 0,0 l/m 0 min 0 min 0,0 UV-I 0 W/m 2,1 km/h (1 Bft)
29.07.2014 02:14 17,3 C 16,1 C 100 % 1010,3 hPa 0,0 l/m 0 min 0 min 0,0 UV-I 0 W/m 0,0 km/h (0 Bft)
29.07.2014 02:16 17,3 C 16,1 C 100 % 1010,4 hPa 0,0 l/m 0 min 0 min 0,0 UV-I 0 W/m 2,1 km/h (1 Bft)
29.07.2014 02:18 17,3 C 16,1 C 100 % 1010,5 hPa 0,0 l/m 0 min 0 min 0,0 UV-I 0 W/m 0,0 km/h (0 Bft)
29.07.2014 02:20 17,3 C 16,1 C 100 % 1010,5 hPa 0,0 l/m 0 min 0 min 0,0 UV-I 0 W/m 0,0 km/h (0 Bft)
29.07.2014 02:22 17,3 C 16,1 C 100 % 1010,4 hPa 0,0 l/m 0 min 0 min 0,0 UV-I 0 W/m 0,0 km/h (0 Bft)
29.07.2014 02:24 17,3 C 16,1 C 100 % 1010,5 hPa 0,0 l/m 0 min 0 min 0,0 UV-I 0 W/m 0,0 km/h (0 Bft)
29.07.2014 02:26 17,3 C 16,1 C 100 % 1010,5 hPa 0,0 l/m 0 min 0 min 0,0 UV-I 0 W/m 4,2 km/h (1 Bft)
29.07.2014 02:28 17,3 C 16,1 C 100 % 1010,5 hPa 0,0 l/m 0 min 0 min 0,0 UV-I 0 W/m 4,2 km/h (1 Bft)
29.07.2014 02:30 17,3 C 16,1 C 100 % 1010,6 hPa 0,0 l/m 0 min 0 min 0,0 UV-I 0 W/m 0,0 km/h (0 Bft)
29.07.2014 02:32 17,3 C 16,1 C 100 % 1010,5 hPa 0,0 l/m 0 min 0 min 0,0 UV-I 0 W/m 0,0 km/h (0 Bft)
29.07.2014 02:34 17,3 C 16,1 C 100 % 1010,6 hPa 0,0 l/m 0 min 0 min 0,0 UV-I 0 W/m 0,0 km/h (0 Bft)
29.07.2014 02:36 17,2 C 16,1 C 100 % 1010,6 hPa 0,0 l/m 0 min 0 min 0,0 UV-I 0 W/m 0,0 km/h (0 Bft)
29.07.2014 02:38 17,2 C 16,1 C 100 % 1010,6 hPa 0,0 l/m 0 min 0 min 0,0 UV-I 0 W/m 0,0 km/h (0 Bft)
29.07.2014 02:40 17,2 C 16,1 C 100 % 1010,5 hPa 0,0 l/m 0 min 0 min 0,0 UV-I 0 W/m 0,0 km/h (0 Bft)
29.07.2014 02:42 17,2 C 16,1 C 100 % 1010,6 hPa 0,0 l/m 0 min 0 min 0,0 UV-I 0 W/m 2,1 km/h (1 Bft)
29.07.2014 02:44 17,2 C 16,1 C 100 % 1010,6 hPa 0,0 l/m 0 min 0 min 0,0 UV-I 0 W/m 0,0 km/h (0 Bft)
29.07.2014 02:46 17,3 C 16,1 C 100 % 1010,6 hPa 0,0 l/m 0 min 0 min 0,0 UV-I 0 W/m 2,1 km/h (1 Bft)
29.07.2014 02:48 17,3 C 16,1 C 100 % 1010,6 hPa 0,0 l/m 0 min 0 min 0,0 UV-I 0 W/m 0,0 km/h (0 Bft)
29.07.2014 02:50 17,3 C 16,1 C 100 % 1010,6 hPa 0,0 l/m 0 min 0 min 0,0 UV-I 0 W/m 0,0 km/h (0 Bft)
29.07.2014 02:52 17,3 C 16,1 C 100 % 1010,7 hPa 0,0 l/m 0 min 0 min 0,0 UV-I 0 W/m 2,1 km/h (1 Bft)
29.07.2014 02:54 17,2 C 16,1 C 100 % 1010,8 hPa 0,0 l/m 0 min 0 min 0,0 UV-I 0 W/m 0,0 km/h (0 Bft)
29.07.2014 02:56 17,2 C 16,1 C 100 % 1010,8 hPa 0,0 l/m 0 min 0 min 0,0 UV-I 0 W/m 0,0 km/h (0 Bft)
29.07.2014 02:58 17,2 C 16,1 C 100 % 1010,8 hPa 0,0 l/m 0 min 0 min 0,0 UV-I 0 W/m 0,0 km/h (0 Bft)
29.07.2014 03:00 17,2 C 16,1 C 100 % 1010,8 hPa 0,0 l/m 0 min 0 min 0,0 UV-I 0 W/m 0,0 km/h (0 Bft)
29.07.2014 03:02 17,2 C 16,1 C 100 % 1010,8 hPa 0,0 l/m 0 min 0 min 0,0 UV-I 0 W/m 2,1 km/h (1 Bft)
29.07.2014 03:04 17,3 C 16,1 C 100 % 1010,8 hPa 0,0 l/m 0 min 0 min 0,0 UV-I 0 W/m 8,4 km/h (2 Bft)
29.07.2014 03:06 17,3 C 16,1 C 100 % 1010,8 hPa 0,0 l/m 0 min 0 min 0,0 UV-I 0 W/m 6,3 km/h (2 Bft)
29.07.2014 03:08 17,2 C 16,1 C 100 % 1010,7 hPa 0,0 l/m 0 min 0 min 0,0 UV-I 0 W/m 4,2 km/h (1 Bft)
29.07.2014 03:10 17,2 C 16,1 C 100 % 1010,7 hPa 0,0 l/m 0 min 0 min 0,0 UV-I 0 W/m 8,4 km/h (2 Bft)
29.07.2014 03:12 17,2 C 16,1 C 100 % 1010,7 hPa 0,0 l/m 0 min 0 min 0,0 UV-I 0 W/m 4,2 km/h (1 Bft)
29.07.2014 03:14 17,2 C 16,1 C 100 % 1010,8 hPa 0,0 l/m 0 min 0 min 0,0 UV-I 0 W/m 8,4 km/h (2 Bft)
29.07.2014 03:16 17,2 C 16,1 C 100 % 1010,8 hPa 0,0 l/m 0 min 0 min 0,0 UV-I 0 W/m 0,0 km/h (0 Bft)
29.07.2014 03:18 17,2 C 16,1 C 100 % 1010,8 hPa 0,0 l/m 0 min 0 min 0,0 UV-I 0 W/m 6,3 km/h (2 Bft)
29.07.2014 03:20 17,2 C 16,1 C 100 % 1010,8 hPa 0,0 l/m 0 min 0 min 0,0 UV-I 0 W/m 0,0 km/h (0 Bft)
29.07.2014 03:22 17,2 C 16,1 C 100 % 1010,8 hPa 0,0 l/m 0 min 0 min 0,0 UV-I 0 W/m 6,3 km/h (2 Bft)
29.07.2014 03:24 17,2 C 16,1 C 100 % 1010,8 hPa 0,0 l/m 0 min 0 min 0,0 UV-I 0 W/m 6,3 km/h (2 Bft)
29.07.2014 03:26 17,2 C 16,1 C 100 % 1010,8 hPa 0,0 l/m 0 min 0 min 0,0 UV-I 0 W/m 8,4 km/h (2 Bft)
29.07.2014 03:28 17,2 C 16,1 C 100 % 1010,7 hPa 0,0 l/m 0 min 0 min 0,0 UV-I 0 W/m 0,0 km/h (0 Bft)
29.07.2014 03:30 17,2 C 16,1 C 100 % 1010,7 hPa 0,0 l/m 0 min 0 min 0,0 UV-I 0 W/m 2,1 km/h (1 Bft)
29.07.2014 03:32 17,1 C 16,1 C 100 % 1010,7 hPa 0,0 l/m 0 min 0 min 0,0 UV-I 0 W/m 0,0 km/h (0 Bft)
29.07.2014 03:34 17,1 C 16,1 C 100 % 1010,7 hPa 0,0 l/m 0 min 0 min 0,0 UV-I 0 W/m 8,4 km/h (2 Bft)
29.07.2014 03:36 17,1 C 16,1 C 100 % 1010,7 hPa 0,0 l/m 0 min 0 min 0,0 UV-I 0 W/m 6,3 km/h (2 Bft)
29.07.2014 03:38 17,1 C 16,1 C 100 % 1010,7 hPa 0,0 l/m 0 min 0 min 0,0 UV-I 0 W/m 2,1 km/h (1 Bft)
29.07.2014 03:40 17,1 C 16,1 C 100 % 1010,7 hPa 0,0 l/m 0 min 0 min 0,0 UV-I 0 W/m 0,0 km/h (0 Bft)
29.07.2014 03:42 17,1 C 16,1 C 100 % 1010,6 hPa 0,0 l/m 0 min 0 min 0,0 UV-I 0 W/m 6,3 km/h (2 Bft)
29.07.2014 03:44 17,1 C 16,1 C 100 % 1010,6 hPa 0,0 l/m 0 min 0 min 0,0 UV-I 0 W/m 6,3 km/h (2 Bft)
29.07.2014 03:46 17,1 C 16,1 C 100 % 1010,6 hPa 0,0 l/m 0 min 0 min 0,0 UV-I 0 W/m 0,0 km/h (0 Bft)
29.07.2014 03:48 17,1 C 16,1 C 100 % 1010,6 hPa 0,0 l/m 0 min 0 min 0,0 UV-I 0 W/m 0,0 km/h (0 Bft)
29.07.2014 03:50 17,0 C 16,1 C 100 % 1010,7 hPa 0,0 l/m 0 min 0 min 0,0 UV-I 0 W/m 0,0 km/h (0 Bft)
29.07.2014 03:52 16,9 C 15,6 C 100 % 1010,6 hPa 0,0 l/m 0 min 0 min 0,0 UV-I 0 W/m 0,0 km/h (0 Bft)
29.07.2014 03:54 16,9 C 15,6 C 100 % 1010,5 hPa 0,0 l/m 0 min 0 min 0,0 UV-I 0 W/m 0,0 km/h (0 Bft)
29.07.2014 03:56 17,0 C 16,1 C 100 % 1010,6 hPa 0,0 l/m 0 min 0 min 0,0 UV-I 0 W/m 0,0 km/h (0 Bft)
29.07.2014 03:58 17,0 C 16,1 C 100 % 1010,6 hPa 0,0 l/m 0 min 0 min 0,0 UV-I 0 W/m 0,0 km/h (0 Bft)
29.07.2014 04:00 17,0 C 15,6 C 100 % 1010,6 hPa 0,0 l/m 0 min 0 min 0,0 UV-I 0 W/m 0,0 km/h (0 Bft)
29.07.2014 04:02 17,0 C 16,1 C 100 % 1010,6 hPa 0,0 l/m 0 min 0 min 0,0 UV-I 0 W/m 6,3 km/h (2 Bft)
29.07.2014 04:04 17,0 C 16,1 C 100 % 1010,5 hPa 0,0 l/m 0 min 0 min 0,0 UV-I 0 W/m 6,3 km/h (2 Bft)
29.07.2014 04:06 17,0 C 16,1 C 100 % 1010,5 hPa 0,0 l/m 0 min 0 min 0,0 UV-I 0 W/m 0,0 km/h (0 Bft)
29.07.2014 04:08 17,0 C 16,1 C 100 % 1010,5 hPa 0,0 l/m 0 min 0 min 0,0 UV-I 0 W/m 2,1 km/h (1 Bft)
29.07.2014 04:10 17,0 C 16,1 C 100 % 1010,5 hPa 0,0 l/m 0 min 0 min 0,0 UV-I 0 W/m 2,1 km/h (1 Bft)
29.07.2014 04:12 17,0 C 16,1 C 100 % 1010,4 hPa 0,0 l/m 0 min 0 min 0,0 UV-I 0 W/m 0,0 km/h (0 Bft)
29.07.2014 04:14 17,0 C 16,1 C 100 % 1010,5 hPa 0,0 l/m 0 min 0 min 0,0 UV-I 0 W/m 0,0 km/h (0 Bft)
29.07.2014 04:16 16,9 C 15,6 C 100 % 1010,4 hPa 0,0 l/m 0 min 0 min 0,0 UV-I 0 W/m 0,0 km/h (0 Bft)
29.07.2014 04:18 16,9 C 15,6 C 100 % 1010,4 hPa 0,0 l/m 0 min 0 min 0,0 UV-I 0 W/m 0,0 km/h (0 Bft)
29.07.2014 04:20 16,9 C 15,6 C 100 % 1010,4 hPa 0,0 l/m 0 min 0 min 0,0 UV-I 0 W/m 2,1 km/h (1 Bft)
29.07.2014 04:22 16,9 C 15,6 C 100 % 1010,4 hPa 0,0 l/m 0 min 0 min 0,0 UV-I 0 W/m 0,0 km/h (0 Bft)
29.07.2014 04:24 16,9 C 15,6 C 100 % 1010,5 hPa 0,0 l/m 0 min 0 min 0,0 UV-I 0 W/m 0,0 km/h (0 Bft)
29.07.2014 04:26 16,9 C 15,6 C 100 % 1010,4 hPa 0,0 l/m 0 min 0 min 0,0 UV-I 0 W/m 0,0 km/h (0 Bft)
29.07.2014 04:28 16,9 C 15,6 C 100 % 1010,4 hPa 0,0 l/m 0 min 0 min 0,0 UV-I 0 W/m 0,0 km/h (0 Bft)
29.07.2014 04:30 16,9 C 15,6 C 100 % 1010,3 hPa 0,0 l/m 0 min 0 min 0,0 UV-I 0 W/m 0,0 km/h (0 Bft)
29.07.2014 04:32 16,9 C 15,6 C 100 % 1010,3 hPa 0,0 l/m 0 min 0 min 0,0 UV-I 0 W/m 0,0 km/h (0 Bft)
29.07.2014 04:34 16,9 C 15,6 C 100 % 1010,3 hPa 0,0 l/m 0 min 0 min 0,0 UV-I 0 W/m 0,0 km/h (0 Bft)
29.07.2014 04:36 16,9 C 15,6 C 100 % 1010,2 hPa 0,0 l/m 0 min 0 min 0,0 UV-I 0 W/m 0,0 km/h (0 Bft)
29.07.2014 04:38 16,8 C 15,6 C 100 % 1010,2 hPa 0,0 l/m 0 min 0 min 0,0 UV-I 0 W/m 0,0 km/h (0 Bft)
29.07.2014 04:40 16,8 C 15,6 C 100 % 1010,1 hPa 0,0 l/m 0 min 0 min 0,0 UV-I 0 W/m 2,1 km/h (1 Bft)
29.07.2014 04:42 16,8 C 15,6 C 100 % 1010,1 hPa 0,0 l/m 0 min 0 min 0,0 UV-I 0 W/m 0,0 km/h (0 Bft)
29.07.2014 04:44 16,8 C 15,6 C 100 % 1010,1 hPa 0,0 l/m 0 min 0 min 0,0 UV-I 0 W/m 0,0 km/h (0 Bft)
29.07.2014 04:46 16,8 C 15,6 C 100 % 1010,1 hPa 0,0 l/m 0 min 0 min 0,0 UV-I 0 W/m 0,0 km/h (0 Bft)
29.07.2014 04:48 16,8 C 15,6 C 100 % 1010,2 hPa 0,0 l/m 0 min 0 min 0,0 UV-I 0 W/m 0,0 km/h (0 Bft)
29.07.2014 04:50 16,8 C 15,6 C 100 % 1010,2 hPa 0,0 l/m 0 min 0 min 0,0 UV-I 0 W/m 0,0 km/h (0 Bft)
29.07.2014 04:52 16,8 C 15,6 C 100 % 1010,2 hPa 0,0 l/m 0 min 0 min 0,0 UV-I 0 W/m 0,0 km/h (0 Bft)
29.07.2014 04:54 16,8 C 15,6 C 100 % 1010,2 hPa 0,0 l/m 0 min 0 min 0,0 UV-I 0 W/m 0,0 km/h (0 Bft)
29.07.2014 04:56 16,8 C 15,6 C 100 % 1010,1 hPa 0,0 l/m 0 min 0 min 0,0 UV-I 0 W/m 0,0 km/h (0 Bft)
29.07.2014 04:58 16,8 C 15,6 C 100 % 1010,1 hPa 0,0 l/m 0 min 0 min 0,0 UV-I 0 W/m 0,0 km/h (0 Bft)
29.07.2014 05:00 16,8 C 15,6 C 100 % 1010,2 hPa 0,0 l/m 0 min 0 min 0,0 UV-I 0 W/m 0,0 km/h (0 Bft)
29.07.2014 05:02 16,8 C 15,6 C 100 % 1010,2 hPa 0,0 l/m 0 min 0 min 0,0 UV-I 0 W/m 0,0 km/h (0 Bft)
29.07.2014 05:04 16,8 C 15,6 C 100 % 1010,1 hPa 0,0 l/m 0 min 0 min 0,0 UV-I 0 W/m 0,0 km/h (0 Bft)
29.07.2014 05:06 16,8 C 15,6 C 100 % 1010,1 hPa 0,0 l/m 0 min 0 min 0,0 UV-I 0 W/m 0,0 km/h (0 Bft)
29.07.2014 05:08 16,8 C 15,6 C 100 % 1010,0 hPa 0,0 l/m 0 min 0 min 0,0 UV-I 0 W/m 0,0 km/h (0 Bft)
29.07.2014 05:10 16,8 C 15,6 C 100 % 1009,9 hPa 0,0 l/m 0 min 0 min 0,0 UV-I 0 W/m 0,0 km/h (0 Bft)
29.07.2014 05:12 16,8 C 15,6 C 100 % 1009,9 hPa 0,0 l/m 0 min 0 min 0,0 UV-I 0 W/m 0,0 km/h (0 Bft)
29.07.2014 05:14 16,9 C 15,6 C 100 % 1009,8 hPa 0,0 l/m 0 min 0 min 0,0 UV-I 0 W/m 0,0 km/h (0 Bft)
29.07.2014 05:16 16,9 C 16,1 C 100 % 1009,8 hPa 0,0 l/m 0 min 0 min 0,0 UV-I 0 W/m 0,0 km/h (0 Bft)
29.07.2014 05:18 16,9 C 15,6 C 100 % 1009,9 hPa 0,0 l/m 0 min 0 min 0,0 UV-I 0 W/m 0,0 km/h (0 Bft)
29.07.2014 05:20 16,9 C 15,6 C 100 % 1009,8 hPa 0,0 l/m 0 min 0 min 0,0 UV-I 0 W/m 0,0 km/h (0 Bft)
29.07.2014 05:22 16,9 C 16,1 C 100 % 1009,9 hPa 0,0 l/m 0 min 0 min 0,0 UV-I 0 W/m 0,0 km/h (0 Bft)
29.07.2014 05:24 16,9 C 16,1 C 100 % 1009,8 hPa 0,0 l/m 0 min 0 min 0,0 UV-I 0 W/m 0,0 km/h (0 Bft)
29.07.2014 05:26 16,9 C 16,1 C 100 % 1009,9 hPa 0,0 l/m 0 min 0 min 0,0 UV-I 0 W/m 0,0 km/h (0 Bft)
29.07.2014 05:28 16,9 C 16,1 C 100 % 1009,8 hPa 0,0 l/m 0 min 0 min 0,0 UV-I 0 W/m 2,1 km/h (1 Bft)
29.07.2014 05:30 16,9 C 16,1 C 100 % 1009,8 hPa 0,0 l/m 0 min 0 min 0,0 UV-I 0 W/m 0,0 km/h (0 Bft)
29.07.2014 05:32 16,9 C 16,1 C 100 % 1009,9 hPa 0,0 l/m 0 min 0 min 0,0 UV-I 0 W/m 0,0 km/h (0 Bft)
29.07.2014 05:34 16,9 C 16,1 C 100 % 1009,9 hPa 0,0 l/m 0 min 0 min 0,0 UV-I 0 W/m 0,0 km/h (0 Bft)
29.07.2014 05:36 16,9 C 16,1 C 100 % 1010,0 hPa 0,0 l/m 0 min 0 min 0,0 UV-I 0 W/m 0,0 km/h (0 Bft)
29.07.2014 05:38 16,9 C 16,1 C 100 % 1010,0 hPa 0,0 l/m 0 min 0 min 0,0 UV-I 0 W/m 0,0 km/h (0 Bft)
29.07.2014 05:40 16,9 C 16,1 C 100 % 1010,0 hPa 0,0 l/m 0 min 0 min 0,0 UV-I 0 W/m 0,0 km/h (0 Bft)
29.07.2014 05:42 16,9 C 16,1 C 100 % 1010,0 hPa 0,0 l/m 0 min 0 min 0,0 UV-I 0 W/m 0,0 km/h (0 Bft)
29.07.2014 05:44 16,9 C 16,1 C 100 % 1010,0 hPa 0,0 l/m 0 min 0 min 0,0 UV-I 0 W/m 0,0 km/h (0 Bft)
29.07.2014 05:46 16,9 C 16,1 C 100 % 1010,0 hPa 0,0 l/m 0 min 0 min 0,0 UV-I 0 W/m 0,0 km/h (0 Bft)
29.07.2014 05:48 16,9 C 16,1 C 100 % 1009,9 hPa 0,0 l/m 0 min 0 min 0,0 UV-I 0 W/m 0,0 km/h (0 Bft)
29.07.2014 05:50 16,9 C 16,1 C 100 % 1009,9 hPa 0,0 l/m 0 min 0 min 0,0 UV-I 0 W/m 0,0 km/h (0 Bft)
29.07.2014 05:52 16,9 C 16,1 C 100 % 1009,9 hPa 0,0 l/m 0 min 0 min 0,0 UV-I 0 W/m 0,0 km/h (0 Bft)
29.07.2014 05:54 17,0 C 16,1 C 100 % 1010,0 hPa 0,0 l/m 0 min 0 min 0,0 UV-I 0 W/m 0,0 km/h (0 Bft)
29.07.2014 05:56 17,0 C 16,1 C 100 % 1010,0 hPa 0,0 l/m 0 min 0 min 0,0 UV-I 0 W/m 0,0 km/h (0 Bft)
29.07.2014 05:58 17,0 C 16,1 C 100 % 1010,0 hPa 0,0 l/m 0 min 0 min 0,0 UV-I 0 W/m 0,0 km/h (0 Bft)
29.07.2014 06:00 17,0 C 16,1 C 100 % 1010,0 hPa 0,0 l/m 0 min 0 min 0,0 UV-I 0 W/m 0,0 km/h (0 Bft)
29.07.2014 06:02 17,0 C 16,1 C 100 % 1010,0 hPa 0,0 l/m 0 min 0 min 0,0 UV-I 0 W/m 0,0 km/h (0 Bft)
29.07.2014 06:06 17,1 C 16,1 C 100 % 1010,0 hPa 0,0 l/m 0 min 0 min 0,0 UV-I 3 W/m 0,0 km/h (0 Bft)
29.07.2014 06:08 17,1 C 16,1 C 100 % 1010,0 hPa 0,0 l/m 0 min 0 min 0,0 UV-I 6 W/m 0,0 km/h (0 Bft)
29.07.2014 06:10 17,1 C 16,1 C 100 % 1010,1 hPa 0,0 l/m 0 min 0 min 0,0 UV-I 7 W/m 0,0 km/h (0 Bft)
29.07.2014 06:12 17,1 C 16,1 C 100 % 1010,0 hPa 0,0 l/m 0 min 0 min 0,0 UV-I 7 W/m 0,0 km/h (0 Bft)
29.07.2014 06:14 17,1 C 16,1 C 100 % 1010,0 hPa 0,0 l/m 0 min 0 min 0,0 UV-I 7 W/m 2,1 km/h (1 Bft)
29.07.2014 06:16 17,1 C 16,1 C 100 % 1010,1 hPa 0,0 l/m 0 min 0 min 0,0 UV-I 7 W/m 0,0 km/h (0 Bft)
29.07.2014 06:18 17,1 C 16,1 C 100 % 1010,1 hPa 0,0 l/m 0 min 0 min 0,0 UV-I 7 W/m 0,0 km/h (0 Bft)
29.07.2014 06:20 17,1 C 16,1 C 100 % 1010,1 hPa 0,0 l/m 0 min 0 min 0,0 UV-I 9 W/m 0,0 km/h (0 Bft)
29.07.2014 06:22 17,1 C 16,1 C 100 % 1010,0 hPa 0,0 l/m 0 min 2 min 0,0 UV-I 11 W/m 0,0 km/h (0 Bft)
29.07.2014 06:24 17,2 C 16,1 C 100 % 1009,9 hPa 0,0 l/m 0 min 0 min 0,0 UV-I 11 W/m 0,0 km/h (0 Bft)
29.07.2014 06:26 17,2 C 16,1 C 100 % 1009,9 hPa 0,0 l/m 0 min 2 min 0,0 UV-I 11 W/m 0,0 km/h (0 Bft)
29.07.2014 06:28 17,3 C 16,7 C 100 % 1009,9 hPa 0,0 l/m 0 min 0 min 0,0 UV-I 12 W/m 0,0 km/h (0 Bft)
29.07.2014 06:30 17,2 C 16,1 C 100 % 1010,0 hPa 0,0 l/m 0 min 0 min 0,0 UV-I 11 W/m 0,0 km/h (0 Bft)
29.07.2014 06:32 17,2 C 16,7 C 100 % 1010,0 hPa 0,0 l/m 0 min 0 min 0,0 UV-I 11 W/m 0,0 km/h (0 Bft)
29.07.2014 06:34 17,2 C 16,1 C 100 % 1010,1 hPa 0,0 l/m 0 min 0 min 0,0 UV-I 11 W/m 0,0 km/h (0 Bft)
29.07.2014 06:36 17,2 C 16,7 C 100 % 1010,1 hPa 0,0 l/m 0 min 0 min 0,0 UV-I 9 W/m 0,0 km/h (0 Bft)
29.07.2014 06:38 17,2 C 16,1 C 100 % 1010,2 hPa 0,0 l/m 0 min 0 min 0,0 UV-I 9 W/m 0,0 km/h (0 Bft)
29.07.2014 06:40 17,2 C 16,7 C 100 % 1010,2 hPa 0,0 l/m 0 min 0 min 0,0 UV-I 9 W/m 0,0 km/h (0 Bft)
29.07.2014 06:42 17,2 C 16,1 C 100 % 1010,2 hPa 0,0 l/m 0 min 0 min 0,0 UV-I 11 W/m 0,0 km/h (0 Bft)
29.07.2014 06:44 17,3 C 16,1 C 100 % 1010,3 hPa 0,0 l/m 0 min 0 min 0,0 UV-I 12 W/m 0,0 km/h (0 Bft)
29.07.2014 06:46 17,2 C 16,7 C 100 % 1010,3 hPa 0,0 l/m 0 min 0 min 0,0 UV-I 14 W/m 0,0 km/h (0 Bft)
29.07.2014 06:48 17,3 C 16,7 C 100 % 1010,3 hPa 0,0 l/m 0 min 0 min 0,0 UV-I 15 W/m 0,0 km/h (0 Bft)
29.07.2014 06:50 17,3 C 16,7 C 100 % 1010,3 hPa 0,0 l/m 0 min 0 min 0,0 UV-I 15 W/m 0,0 km/h (0 Bft)
29.07.2014 06:52 17,3 C 16,7 C 100 % 1010,4 hPa 0,0 l/m 0 min 0 min 0,0 UV-I 14 W/m 0,0 km/h (0 Bft)
29.07.2014 06:54 17,3 C 16,7 C 100 % 1010,3 hPa 0,0 l/m 0 min 0 min 0,0 UV-I 14 W/m 0,0 km/h (0 Bft)
29.07.2014 06:56 17,3 C 16,7 C 100 % 1010,3 hPa 0,0 l/m 0 min 2 min 0,0 UV-I 12 W/m 0,0 km/h (0 Bft)
29.07.2014 06:58 17,3 C 16,7 C 100 % 1010,3 hPa 0,0 l/m 0 min 0 min 0,0 UV-I 13 W/m 0,0 km/h (0 Bft)
29.07.2014 07:00 17,3 C 16,7 C 100 % 1010,3 hPa 0,0 l/m 0 min 2 min 0,0 UV-I 16 W/m 0,0 km/h (0 Bft)
29.07.2014 07:02 17,4 C 16,7 C 100 % 1010,2 hPa 0,0 l/m 0 min 0 min 0,0 UV-I 18 W/m 0,0 km/h (0 Bft)
29.07.2014 07:04 17,4 C 16,7 C 100 % 1010,2 hPa 0,0 l/m 0 min 0 min 0,0 UV-I 22 W/m 0,0 km/h (0 Bft)
29.07.2014 07:06 17,4 C 16,7 C 100 % 1010,1 hPa 0,0 l/m 0 min 0 min 0,0 UV-I 27 W/m 0,0 km/h (0 Bft)
29.07.2014 07:08 17,4 C 16,7 C 100 % 1010,0 hPa 0,0 l/m 0 min 0 min 0,0 UV-I 33 W/m 0,0 km/h (0 Bft)
29.07.2014 07:10 17,4 C 16,7 C 100 % 1010,0 hPa 0,0 l/m 0 min 0 min 0,0 UV-I 37 W/m 2,1 km/h (1 Bft)
29.07.2014 07:12 17,4 C 16,7 C 100 % 1010,0 hPa 0,0 l/m 0 min 2 min 0,0 UV-I 36 W/m 0,0 km/h (0 Bft)
29.07.2014 07:14 17,4 C 16,7 C 100 % 1010,1 hPa 0,0 l/m 0 min 2 min 0,0 UV-I 33 W/m 0,0 km/h (0 Bft)
29.07.2014 07:16 17,4 C 16,7 C 100 % 1010,2 hPa 0,0 l/m 0 min 2 min 0,0 UV-I 35 W/m 0,0 km/h (0 Bft)
29.07.2014 07:18 17,4 C 16,7 C 100 % 1010,1 hPa 0,0 l/m 0 min 2 min 0,0 UV-I 40 W/m 2,1 km/h (1 Bft)
29.07.2014 07:20 17,4 C 16,7 C 100 % 1010,1 hPa 0,0 l/m 0 min 2 min 0,0 UV-I 41 W/m 2,1 km/h (1 Bft)
29.07.2014 07:22 17,5 C 16,7 C 100 % 1010,0 hPa 0,0 l/m 0 min 2 min 0,0 UV-I 41 W/m 2,1 km/h (1 Bft)
29.07.2014 07:24 17,6 C 16,7 C 100 % 1010,0 hPa 0,0 l/m 0 min 0 min 0,0 UV-I 39 W/m 0,0 km/h (0 Bft)
29.07.2014 07:26 17,6 C 16,7 C 100 % 1010,1 hPa 0,0 l/m 0 min 0 min 0,0 UV-I 35 W/m 0,0 km/h (0 Bft)
29.07.2014 07:28 17,6 C 16,7 C 100 % 1010,1 hPa 0,0 l/m 0 min 0 min 0,0 UV-I 38 W/m 0,0 km/h (0 Bft)
29.07.2014 07:30 17,6 C 16,7 C 100 % 1010,0 hPa 0,0 l/m 0 min 0 min 0,0 UV-I 37 W/m 6,3 km/h (2 Bft)
29.07.2014 07:32 17,6 C 16,7 C 100 % 1010,0 hPa 0,0 l/m 0 min 0 min 0,0 UV-I 35 W/m 6,3 km/h (2 Bft)
29.07.2014 07:34 17,6 C 16,7 C 100 % 1010,0 hPa 0,0 l/m 0 min 0 min 0,0 UV-I 35 W/m 8,4 km/h (2 Bft)
29.07.2014 07:36 17,7 C 16,7 C 100 % 1010,0 hPa 0,0 l/m 0 min 0 min 0,0 UV-I 35 W/m 6,3 km/h (2 Bft)
29.07.2014 07:38 17,7 C 16,7 C 100 % 1010,0 hPa 0,0 l/m 0 min 0 min 0,0 UV-I 35 W/m 6,3 km/h (2 Bft)
29.07.2014 07:40 17,7 C 16,7 C 100 % 1010,0 hPa 0,0 l/m 0 min 0 min 0,0 UV-I 37 W/m 10,5 km/h (2 Bft)
29.07.2014 07:42 17,7 C 16,7 C 100 % 1009,9 hPa 0,0 l/m 0 min 0 min 0,0 UV-I 39 W/m 8,4 km/h (2 Bft)
29.07.2014 07:44 17,7 C 16,7 C 100 % 1009,9 hPa 0,0 l/m 0 min 0 min 0,0 UV-I 43 W/m 0,0 km/h (0 Bft)
29.07.2014 07:46 17,7 C 16,7 C 100 % 1009,9 hPa 0,0 l/m 0 min 0 min 0,0 UV-I 48 W/m 8,4 km/h (2 Bft)
29.07.2014 07:48 17,7 C 16,7 C 100 % 1009,9 hPa 0,0 l/m 0 min 0 min 0,0 UV-I 50 W/m 8,4 km/h (2 Bft)
29.07.2014 07:50 17,8 C 16,7 C 100 % 1009,9 hPa 0,0 l/m 0 min 0 min 0,0 UV-I 51 W/m 8,4 km/h (2 Bft)
29.07.2014 07:52 17,9 C 17,2 C 100 % 1010,0 hPa 0,0 l/m 0 min 0 min 0,0 UV-I 51 W/m 8,4 km/h (2 Bft)
29.07.2014 07:54 17,9 C 17,2 C 100 % 1010,0 hPa 0,0 l/m 0 min 0 min 0,0 UV-I 51 W/m 6,3 km/h (2 Bft)
29.07.2014 07:56 17,9 C 17,2 C 100 % 1009,9 hPa 0,0 l/m 0 min 0 min 0,0 UV-I 55 W/m 12,6 km/h (3 Bft)
29.07.2014 07:58 17,9 C 17,2 C 100 % 1009,9 hPa 0,0 l/m 0 min 0 min 0,0 UV-I 56 W/m 4,2 km/h (1 Bft)
29.07.2014 08:00 18,0 C 17,2 C 100 % 1009,9 hPa 0,0 l/m 0 min 0 min 0,0 UV-I 57 W/m 12,6 km/h (3 Bft)
29.07.2014 08:02 18,1 C 17,2 C 100 % 1009,9 hPa 0,0 l/m 0 min 0 min 0,0 UV-I 55 W/m 0,0 km/h (0 Bft)
29.07.2014 08:04 18,1 C 17,2 C 100 % 1010,0 hPa 0,0 l/m 0 min 0 min 0,0 UV-I 57 W/m 8,4 km/h (2 Bft)
29.07.2014 08:06 18,0 C 17,2 C 100 % 1010,0 hPa 0,0 l/m 0 min 0 min 0,0 UV-I 52 W/m 6,3 km/h (2 Bft)
29.07.2014 08:08 18,0 C 17,2 C 100 % 1010,0 hPa 0,0 l/m 0 min 0 min 0,0 UV-I 52 W/m 10,5 km/h (2 Bft)
29.07.2014 08:10 18,1 C 17,2 C 100 % 1010,0 hPa 0,0 l/m 0 min 0 min 0,0 UV-I 52 W/m 12,6 km/h (3 Bft)
29.07.2014 08:12 18,1 C 17,2 C 100 % 1010,0 hPa 0,0 l/m 0 min 0 min 0,0 UV-I 54 W/m 8,4 km/h (2 Bft)
29.07.2014 08:14 18,1 C 17,2 C 100 % 1010,1 hPa 0,0 l/m 0 min 0 min 0,0 UV-I 59 W/m 16,7 km/h (3 Bft)
29.07.2014 08:16 18,1 C 17,2 C 100 % 1010,0 hPa 0,0 l/m 0 min 0 min 0,0 UV-I 65 W/m 16,7 km/h (3 Bft)
29.07.2014 08:18 18,2 C 17,2 C 100 % 1010,0 hPa 0,0 l/m 0 min 0 min 0,0 UV-I 71 W/m 12,6 km/h (3 Bft)
29.07.2014 08:20 18,2 C 17,2 C 100 % 1010,0 hPa 0,0 l/m 0 min 0 min 0,0 UV-I 72 W/m 14,6 km/h (3 Bft)
29.07.2014 08:22 18,2 C 17,2 C 100 % 1010,0 hPa 0,0 l/m 0 min 0 min 0,0 UV-I 76 W/m 12,6 km/h (3 Bft)
29.07.2014 08:24 18,3 C 17,2 C 100 % 1010,1 hPa 0,0 l/m 0 min 0 min 0,0 UV-I 71 W/m 14,6 km/h (3 Bft)
29.07.2014 08:26 18,3 C 17,2 C 100 % 1010,1 hPa 0,0 l/m 0 min 0 min 0,0 UV-I 75 W/m 14,6 km/h (3 Bft)
29.07.2014 08:28 18,3 C 17,2 C 100 % 1010,1 hPa 0,0 l/m 0 min 0 min 0,0 UV-I 80 W/m 14,6 km/h (3 Bft)
29.07.2014 08:30 18,4 C 17,8 C 100 % 1010,1 hPa 0,0 l/m 0 min 0 min 0,0 UV-I 85 W/m 8,4 km/h (2 Bft)
29.07.2014 08:32 18,4 C 17,8 C 100 % 1010,1 hPa 0,0 l/m 0 min 0 min 0,0 UV-I 103 W/m 8,4 km/h (2 Bft)
29.07.2014 08:34 18,5 C 17,8 C 100 % 1010,1 hPa 0,0 l/m 0 min 0 min 0,0 UV-I 99 W/m 14,6 km/h (3 Bft)
29.07.2014 08:36 18,5 C 17,8 C 100 % 1010,1 hPa 0,0 l/m 0 min 0 min 0,0 UV-I 114 W/m 20,9 km/h (4 Bft)
29.07.2014 08:38 18,5 C 17,8 C 100 % 1010,2 hPa 0,0 l/m 0 min 0 min 0,0 UV-I 120 W/m 14,6 km/h (3 Bft)
29.07.2014 08:40 18,5 C 17,8 C 100 % 1010,2 hPa 0,0 l/m 0 min 0 min 0,0 UV-I 126 W/m 16,7 km/h (3 Bft)
29.07.2014 08:42 18,6 C 17,8 C 100 % 1010,2 hPa 0,0 l/m 0 min 0 min 0,0 UV-I 111 W/m 16,7 km/h (3 Bft)
29.07.2014 08:44 18,6 C 17,8 C 100 % 1010,3 hPa 0,0 l/m 0 min 0 min 0,0 UV-I 115 W/m 16,7 km/h (3 Bft)
29.07.2014 08:46 18,6 C 17,8 C 100 % 1010,3 hPa 0,0 l/m 0 min 0 min 0,0 UV-I 120 W/m 12,6 km/h (3 Bft)
29.07.2014 08:48 18,7 C 17,8 C 100 % 1010,2 hPa 0,0 l/m 0 min 0 min 0,0 UV-I 117 W/m 14,6 km/h (3 Bft)
29.07.2014 08:50 18,7 C 17,8 C 100 % 1010,3 hPa 0,0 l/m 0 min 0 min 0,0 UV-I 104 W/m 16,7 km/h (3 Bft)
29.07.2014 08:52 18,7 C 17,8 C 100 % 1010,2 hPa 0,0 l/m 0 min 0 min 0,0 UV-I 102 W/m 16,7 km/h (3 Bft)
29.07.2014 08:54 18,7 C 17,8 C 100 % 1010,3 hPa 0,0 l/m 0 min 0 min 0,0 UV-I 106 W/m 16,7 km/h (3 Bft)
29.07.2014 08:56 18,7 C 17,8 C 100 % 1010,2 hPa 0,0 l/m 0 min 0 min 0,0 UV-I 101 W/m 14,6 km/h (3 Bft)
29.07.2014 08:58 18,7 C 17,8 C 100 % 1010,2 hPa 0,0 l/m 0 min 0 min 0,0 UV-I 90 W/m 18,8 km/h (3 Bft)
29.07.2014 09:00 18,7 C 17,8 C 100 % 1010,2 hPa 0,0 l/m 0 min 0 min 0,0 UV-I 94 W/m 18,8 km/h (3 Bft)
29.07.2014 09:02 18,7 C 17,8 C 100 % 1010,2 hPa 0,0 l/m 0 min 0 min 0,0 UV-I 103 W/m 18,8 km/h (3 Bft)
29.07.2014 09:04 18,7 C 17,8 C 100 % 1010,2 hPa 0,0 l/m 0 min 0 min 0,0 UV-I 114 W/m 18,8 km/h (3 Bft)
29.07.2014 09:06 18,7 C 17,8 C 100 % 1010,3 hPa 0,0 l/m 0 min 0 min 0,0 UV-I 110 W/m 18,8 km/h (3 Bft)
29.07.2014 09:08 18,7 C 17,8 C 100 % 1010,3 hPa 0,0 l/m 0 min 0 min 0,0 UV-I 111 W/m 18,8 km/h (3 Bft)
29.07.2014 09:10 18,8 C 17,8 C 100 % 1010,3 hPa 0,0 l/m 0 min 0 min 0,0 UV-I 103 W/m 10,5 km/h (2 Bft)
29.07.2014 09:12 18,8 C 17,8 C 100 % 1010,3 hPa 0,0 l/m 0 min 0 min 0,0 UV-I 94 W/m 18,8 km/h (3 Bft)
29.07.2014 09:14 18,8 C 17,8 C 100 % 1010,4 hPa 0,0 l/m 0 min 0 min 0,0 UV-I 73 W/m 18,8 km/h (3 Bft)
29.07.2014 09:16 18,8 C 17,8 C 100 % 1010,4 hPa 0,0 l/m 0 min 0 min 0,0 UV-I 68 W/m 10,5 km/h (2 Bft)
29.07.2014 09:18 18,8 C 17,8 C 100 % 1010,4 hPa 0,0 l/m 0 min 0 min 0,0 UV-I 71 W/m 12,6 km/h (3 Bft)
29.07.2014 09:20 18,8 C 17,8 C 100 % 1010,3 hPa 0,0 l/m 0 min 0 min 0,0 UV-I 84 W/m 14,6 km/h (3 Bft)
29.07.2014 09:22 18,8 C 18,3 C 100 % 1010,3 hPa 0,0 l/m 0 min 0 min 0,0 UV-I 88 W/m 12,6 km/h (3 Bft)
29.07.2014 09:24 18,9 C 18,3 C 100 % 1010,4 hPa 0,0 l/m 0 min 0 min 0,0 UV-I 87 W/m 10,5 km/h (2 Bft)
29.07.2014 09:26 18,9 C 18,3 C 100 % 1010,5 hPa 0,0 l/m 0 min 0 min 0,0 UV-I 96 W/m 12,6 km/h (3 Bft)
29.07.2014 09:28 19,1 C 18,3 C 100 % 1010,4 hPa 0,0 l/m 0 min 0 min 0,0 UV-I 87 W/m 6,3 km/h (2 Bft)
29.07.2014 09:30 19,0 C 18,3 C 100 % 1010,4 hPa 0,0 l/m 0 min 0 min 0,0 UV-I 86 W/m 14,6 km/h (3 Bft)
29.07.2014 09:32 18,9 C 18,3 C 100 % 1010,4 hPa 0,0 l/m 0 min 0 min 0,0 UV-I 82 W/m 8,4 km/h (2 Bft)
29.07.2014 09:34 19,0 C 18,3 C 100 % 1010,4 hPa 0,0 l/m 0 min 0 min 0,0 UV-I 96 W/m 10,5 km/h (2 Bft)
29.07.2014 09:36 19,0 C 18,3 C 100 % 1010,4 hPa 0,0 l/m 0 min 0 min 0,0 UV-I 100 W/m 10,5 km/h (2 Bft)
29.07.2014 09:38 19,0 C 18,3 C 100 % 1010,4 hPa 0,0 l/m 0 min 0 min 0,0 UV-I 99 W/m 12,6 km/h (3 Bft)
29.07.2014 09:40 19,0 C 18,3 C 100 % 1010,4 hPa 0,0 l/m 0 min 0 min 0,0 UV-I 105 W/m 12,6 km/h (3 Bft)
29.07.2014 09:42 19,1 C 18,3 C 100 % 1010,4 hPa 0,0 l/m 0 min 0 min 0,0 UV-I 132 W/m 8,4 km/h (2 Bft)
29.07.2014 09:44 19,1 C 18,9 C 100 % 1010,4 hPa 0,0 l/m 0 min 0 min 0,0 UV-I 171 W/m 14,6 km/h (3 Bft)
29.07.2014 09:46 19,2 C 18,9 C 100 % 1010,5 hPa 0,0 l/m 0 min 0 min 0,0 UV-I 188 W/m 14,6 km/h (3 Bft)
29.07.2014 09:48 19,2 C 18,9 C 100 % 1010,5 hPa 0,0 l/m 0 min 0 min 0,0 UV-I 160 W/m 10,5 km/h (2 Bft)
29.07.2014 09:50 19,2 C 18,9 C 100 % 1010,5 hPa 0,0 l/m 0 min 0 min 0,0 UV-I 163 W/m 14,6 km/h (3 Bft)
29.07.2014 09:52 19,2 C 18,9 C 100 % 1010,5 hPa 0,0 l/m 0 min 0 min 0,0 UV-I 173 W/m 14,6 km/h (3 Bft)
29.07.2014 09:54 19,3 C 18,9 C 100 % 1010,4 hPa 0,0 l/m 0 min 0 min 0,0 UV-I 174 W/m 12,6 km/h (3 Bft)
29.07.2014 09:56 19,3 C 19,4 C 100 % 1010,5 hPa 0,0 l/m 0 min 0 min 0,1 UV-I 168 W/m 14,6 km/h (3 Bft)
29.07.2014 09:58 19,3 C 19,4 C 100 % 1010,5 hPa 0,0 l/m 0 min 0 min 0,5 UV-I 190 W/m 14,6 km/h (3 Bft)
29.07.2014 10:00 19,4 C 19,4 C 100 % 1010,5 hPa 0,0 l/m 0 min 0 min 0,6 UV-I 202 W/m 16,7 km/h (3 Bft)
29.07.2014 10:02 19,4 C 19,4 C 100 % 1010,5 hPa 0,0 l/m 0 min 0 min 0,9 UV-I 239 W/m 12,6 km/h (3 Bft)
29.07.2014 10:04 19,5 C 19,4 C 100 % 1010,5 hPa 0,0 l/m 0 min 0 min 1,1 UV-I 281 W/m 14,6 km/h (3 Bft)
29.07.2014 10:06 19,7 C 20,0 C 100 % 1010,4 hPa 0,0 l/m 2 min 0 min 0,7 UV-I 357 W/m 12,6 km/h (3 Bft)
29.07.2014 10:08 19,8 C 20,0 C 100 % 1010,4 hPa 0,0 l/m 0 min 0 min 0,5 UV-I 176 W/m 16,7 km/h (3 Bft)
29.07.2014 10:10 19,7 C 19,4 C 100 % 1010,4 hPa 0,0 l/m 0 min 0 min 0,9 UV-I 188 W/m 10,5 km/h (2 Bft)
29.07.2014 10:12 19,7 C 19,4 C 100 % 1010,3 hPa 0,0 l/m 0 min 0 min 0,7 UV-I 190 W/m 14,6 km/h (3 Bft)
29.07.2014 10:14 19,7 C 20,0 C 100 % 1010,3 hPa 0,0 l/m 0 min 0 min 0,9 UV-I 250 W/m 14,6 km/h (3 Bft)
29.07.2014 10:16 19,8 C 20,0 C 100 % 1010,3 hPa 0,0 l/m 0 min 0 min 1,1 UV-I 287 W/m 16,7 km/h (3 Bft)
29.07.2014 10:18 19,8 C 20,0 C 100 % 1010,3 hPa 0,0 l/m 2 min 0 min 1,2 UV-I 314 W/m 10,5 km/h (2 Bft)
29.07.2014 10:20 20,0 C 20,0 C 100 % 1010,3 hPa 0,0 l/m 0 min 0 min 1,2 UV-I 272 W/m 8,4 km/h (2 Bft)
29.07.2014 10:22 20,2 C 20,6 C 100 % 1010,3 hPa 0,0 l/m 0 min 0 min 1,3 UV-I 282 W/m 16,7 km/h (3 Bft)
29.07.2014 10:24 20,1 C 20,0 C 100 % 1010,3 hPa 0,0 l/m 0 min 0 min 0,9 UV-I 232 W/m 18,8 km/h (3 Bft)
29.07.2014 10:26 20,0 C 20,0 C 100 % 1010,3 hPa 0,0 l/m 0 min 0 min 0,8 UV-I 201 W/m 14,6 km/h (3 Bft)
29.07.2014 10:28 19,9 C 20,0 C 100 % 1010,3 hPa 0,0 l/m 0 min 0 min 0,6 UV-I 158 W/m 14,6 km/h (3 Bft)
29.07.2014 10:30 19,9 C 19,4 C 100 % 1010,3 hPa 0,0 l/m 0 min 0 min 0,6 UV-I 160 W/m 16,7 km/h (3 Bft)
29.07.2014 10:32 20,1 C 20,0 C 100 % 1010,4 hPa 0,0 l/m 0 min 0 min 1,2 UV-I 255 W/m 14,6 km/h (3 Bft)
29.07.2014 10:34 20,1 C 20,0 C 100 % 1010,4 hPa 0,0 l/m 2 min 0 min 1,5 UV-I 332 W/m 12,6 km/h (3 Bft)
29.07.2014 10:36 20,2 C 20,6 C 100 % 1010,4 hPa 0,0 l/m 0 min 0 min 1,5 UV-I 314 W/m 8,4 km/h (2 Bft)
29.07.2014 10:38 20,3 C 20,6 C 100 % 1010,4 hPa 0,0 l/m 0 min 0 min 1,1 UV-I 228 W/m 8,4 km/h (2 Bft)
29.07.2014 10:40 20,3 C 20,6 C 100 % 1010,4 hPa 0,0 l/m 0 min 0 min 1,0 UV-I 209 W/m 8,4 km/h (2 Bft)
29.07.2014 10:42 20,4 C 20,6 C 100 % 1010,4 hPa 0,0 l/m 0 min 0 min 1,1 UV-I 228 W/m 14,6 km/h (3 Bft)
29.07.2014 10:44 20,4 C 20,6 C 100 % 1010,4 hPa 0,0 l/m 0 min 0 min 1,1 UV-I 210 W/m 12,6 km/h (3 Bft)
29.07.2014 10:46 20,3 C 20,6 C 100 % 1010,4 hPa 0,0 l/m 0 min 0 min 1,1 UV-I 217 W/m 6,3 km/h (2 Bft)
29.07.2014 10:48 20,4 C 20,6 C 100 % 1010,5 hPa 0,0 l/m 0 min 0 min 1,1 UV-I 210 W/m 14,6 km/h (3 Bft)
29.07.2014 10:50 20,5 C 20,0 C 100 % 1010,5 hPa 0,0 l/m 0 min 0 min 0,9 UV-I 176 W/m 10,5 km/h (2 Bft)
29.07.2014 10:52 20,4 C 20,0 C 100 % 1010,5 hPa 0,0 l/m 0 min 0 min 0,9 UV-I 184 W/m 8,4 km/h (2 Bft)
29.07.2014 10:54 20,6 C 20,6 C 99 % 1010,4 hPa 0,0 l/m 0 min 0 min 0,9 UV-I 184 W/m 6,3 km/h (2 Bft)
29.07.2014 10:56 20,5 C 20,0 C 99 % 1010,5 hPa 0,0 l/m 0 min 0 min 0,8 UV-I 173 W/m 8,4 km/h (2 Bft)
29.07.2014 10:58 20,7 C 20,6 C 99 % 1010,5 hPa 0,0 l/m 0 min 0 min 0,6 UV-I 168 W/m 6,3 km/h (2 Bft)
29.07.2014 11:00 20,7 C 20,6 C 99 % 1010,4 hPa 0,0 l/m 0 min 0 min 0,7 UV-I 182 W/m 12,6 km/h (3 Bft)
29.07.2014 11:02 20,7 C 20,6 C 98 % 1010,4 hPa 0,0 l/m 0 min 0 min 0,9 UV-I 208 W/m 14,6 km/h (3 Bft)
29.07.2014 11:04 20,8 C 20,6 C 98 % 1010,4 hPa 0,0 l/m 0 min 0 min 1,4 UV-I 306 W/m 8,4 km/h (2 Bft)
29.07.2014 11:06 20,8 C 20,6 C 97 % 1010,4 hPa 0,0 l/m 0 min 0 min 1,4 UV-I 340 W/m 14,6 km/h (3 Bft)
29.07.2014 11:08 20,9 C 21,1 C 97 % 1010,4 hPa 0,0 l/m 2 min 0 min 1,7 UV-I 384 W/m 16,7 km/h (3 Bft)
29.07.2014 11:10 21,1 C 21,1 C 97 % 1010,4 hPa 0,0 l/m 2 min 0 min 2,1 UV-I 494 W/m 14,6 km/h (3 Bft)
29.07.2014 11:12 21,3 C 21,7 C 96 % 1010,3 hPa 0,0 l/m 2 min 0 min 2,0 UV-I 425 W/m 16,7 km/h (3 Bft)
29.07.2014 11:14 21,4 C 21,7 C 96 % 1010,4 hPa 0,0 l/m 2 min 0 min 1,7 UV-I 373 W/m 14,6 km/h (3 Bft)
29.07.2014 11:16 21,5 C 21,7 C 96 % 1010,4 hPa 0,0 l/m 0 min 0 min 1,6 UV-I 345 W/m 14,6 km/h (3 Bft)
29.07.2014 11:18 21,6 C 21,7 C 95 % 1010,4 hPa 0,0 l/m 2 min 0 min 1,6 UV-I 357 W/m 16,7 km/h (3 Bft)
29.07.2014 11:20 21,6 C 21,7 C 95 % 1010,4 hPa 0,0 l/m 0 min 0 min 1,5 UV-I 344 W/m 14,6 km/h (3 Bft)
29.07.2014 11:22 21,7 C 21,7 C 94 % 1010,3 hPa 0,0 l/m 2 min 0 min 1,7 UV-I 381 W/m 12,6 km/h (3 Bft)
29.07.2014 11:24 21,7 C 21,7 C 94 % 1010,4 hPa 0,0 l/m 2 min 0 min 1,8 UV-I 400 W/m 16,7 km/h (3 Bft)
29.07.2014 11:26 21,8 C 21,7 C 94 % 1010,4 hPa 0,0 l/m 2 min 0 min 1,7 UV-I 382 W/m 14,6 km/h (3 Bft)
29.07.2014 11:28 21,9 C 22,2 C 94 % 1010,4 hPa 0,0 l/m 2 min 0 min 2,1 UV-I 363 W/m 16,7 km/h (3 Bft)
29.07.2014 11:30 21,9 C 22,2 C 93 % 1010,4 hPa 0,0 l/m 2 min 0 min 2,9 UV-I 373 W/m 16,7 km/h (3 Bft)
29.07.2014 11:32 22,2 C 22,8 C 93 % 1010,4 hPa 0,0 l/m 2 min 0 min 3,4 UV-I 373 W/m 12,6 km/h (3 Bft)
29.07.2014 11:34 22,5 C 23,3 C 93 % 1010,4 hPa 0,0 l/m 2 min 0 min 3,4 UV-I 373 W/m 16,7 km/h (3 Bft)
29.07.2014 11:36 22,7 C 23,3 C 92 % 1010,4 hPa 0,0 l/m 2 min 0 min 2,9 UV-I 393 W/m 14,6 km/h (3 Bft)
29.07.2014 11:38 22,8 C 23,9 C 91 % 1010,4 hPa 0,0 l/m 2 min 0 min 3,4 UV-I 538 W/m 25,1 km/h (4 Bft)
29.07.2014 11:40 22,9 C 23,9 C 90 % 1010,4 hPa 0,0 l/m 2 min 0 min 3,6 UV-I 694 W/m 18,8 km/h (3 Bft)
29.07.2014 11:42 23,0 C 24,4 C 90 % 1010,4 hPa 0,0 l/m 2 min 0 min 3,5 UV-I 675 W/m 16,7 km/h (3 Bft)
29.07.2014 11:44 22,9 C 23,9 C 89 % 1010,3 hPa 0,0 l/m 2 min 0 min 3,6 UV-I 690 W/m 18,8 km/h (3 Bft)
29.07.2014 11:46 22,9 C 24,4 C 89 % 1010,3 hPa 0,0 l/m 2 min 0 min 3,7 UV-I 683 W/m 10,5 km/h (2 Bft)
29.07.2014 11:48 22,9 C 24,4 C 89 % 1010,3 hPa 0,0 l/m 2 min 0 min 3,7 UV-I 679 W/m 14,6 km/h (3 Bft)
29.07.2014 11:50 23,0 C 24,4 C 89 % 1010,3 hPa 0,0 l/m 2 min 0 min 3,7 UV-I 670 W/m 18,8 km/h (3 Bft)
29.07.2014 11:52 23,0 C 24,4 C 89 % 1010,3 hPa 0,0 l/m 2 min 0 min 3,6 UV-I 659 W/m 20,9 km/h (4 Bft)
29.07.2014 11:54 23,1 C 25,0 C 89 % 1010,2 hPa 0,0 l/m 2 min 0 min 3,7 UV-I 688 W/m 8,4 km/h (2 Bft)
29.07.2014 11:56 23,3 C 25,0 C 89 % 1010,1 hPa 0,0 l/m 2 min 0 min 3,4 UV-I 686 W/m 16,7 km/h (3 Bft)
29.07.2014 11:58 23,4 C 24,4 C 88 % 1010,3 hPa 0,0 l/m 2 min 0 min 3,4 UV-I 686 W/m 18,8 km/h (3 Bft)
29.07.2014 12:00 23,3 C 23,9 C 88 % 1010,1 hPa 0,0 l/m 2 min 0 min 2,9 UV-I 622 W/m 16,7 km/h (3 Bft)
29.07.2014 12:02 23,3 C 23,9 C 88 % 1010,1 hPa 0,0 l/m 2 min 0 min 2,6 UV-I 490 W/m 14,6 km/h (3 Bft)
29.07.2014 12:06 23,5 C 25,0 C 88 % 1010,2 hPa 0,0 l/m 2 min 0 min 3,8 UV-I 564 W/m 18,8 km/h (3 Bft)
29.07.2014 12:08 23,6 C 25,0 C 87 % 1010,2 hPa 0,0 l/m 2 min 0 min 3,9 UV-I 687 W/m 20,9 km/h (4 Bft)
29.07.2014 12:10 23,7 C 25,6 C 87 % 1010,2 hPa 0,0 l/m 2 min 0 min 3,9 UV-I 688 W/m 14,6 km/h (3 Bft)
29.07.2014 12:12 23,8 C 25,6 C 87 % 1010,1 hPa 0,0 l/m 2 min 0 min 3,9 UV-I 679 W/m 18,8 km/h (3 Bft)
29.07.2014 12:14 24,0 C 26,1 C 87 % 1010,1 hPa 0,0 l/m 2 min 0 min 4,0 UV-I 703 W/m 12,6 km/h (3 Bft)
29.07.2014 12:16 24,1 C 26,1 C 86 % 1010,1 hPa 0,0 l/m 2 min 0 min 4,1 UV-I 707 W/m 16,7 km/h (3 Bft)
29.07.2014 12:18 24,2 C 26,1 C 86 % 1010,0 hPa 0,0 l/m 2 min 0 min 4,1 UV-I 719 W/m 16,7 km/h (3 Bft)
29.07.2014 12:20 24,2 C 26,1 C 86 % 1010,0 hPa 0,0 l/m 2 min 0 min 4,1 UV-I 720 W/m 18,8 km/h (3 Bft)
29.07.2014 12:22 24,3 C 26,1 C 86 % 1010,0 hPa 0,0 l/m 2 min 0 min 3,7 UV-I 669 W/m 14,6 km/h (3 Bft)
29.07.2014 12:24 24,3 C 25,6 C 85 % 1010,1 hPa 0,0 l/m 2 min 0 min 3,4 UV-I 558 W/m 20,9 km/h (4 Bft)
29.07.2014 12:26 24,3 C 25,0 C 85 % 1010,0 hPa 0,0 l/m 0 min 0 min 3,3 UV-I 384 W/m 18,8 km/h (3 Bft)
29.07.2014 12:28 24,4 C 25,6 C 86 % 1010,0 hPa 0,0 l/m 2 min 0 min 3,6 UV-I 564 W/m 10,5 km/h (2 Bft)
29.07.2014 12:30 24,6 C 26,1 C 85 % 1010,1 hPa 0,0 l/m 2 min 0 min 4,0 UV-I 678 W/m 14,6 km/h (3 Bft)
29.07.2014 12:32 24,7 C 26,7 C 85 % 1010,0 hPa 0,0 l/m 2 min 0 min 4,0 UV-I 738 W/m 20,9 km/h (4 Bft)
29.07.2014 12:34 24,7 C 25,6 C 82 % 1010,0 hPa 0,0 l/m 2 min 0 min 2,9 UV-I 630 W/m 25,1 km/h (4 Bft)
29.07.2014 12:36 24,6 C 25,0 C 82 % 1010,1 hPa 0,0 l/m 2 min 0 min 3,5 UV-I 403 W/m 20,9 km/h (4 Bft)
29.07.2014 12:38 24,6 C 25,0 C 82 % 1010,1 hPa 0,0 l/m 2 min 0 min 3,6 UV-I 580 W/m 16,7 km/h (3 Bft)
29.07.2014 12:40 24,7 C 25,6 C 83 % 1010,1 hPa 0,0 l/m 2 min 0 min 3,3 UV-I 492 W/m 16,7 km/h (3 Bft)
29.07.2014 12:42 24,8 C 25,6 C 83 % 1010,1 hPa 0,0 l/m 2 min 0 min 3,5 UV-I 468 W/m 18,8 km/h (3 Bft)
29.07.2014 12:44 25,1 C 26,1 C 83 % 1010,1 hPa 0,0 l/m 2 min 0 min 4,0 UV-I 537 W/m 10,5 km/h (2 Bft)
29.07.2014 12:46 25,2 C 23,3 C 82 % 1010,1 hPa 0,0 l/m 2 min 0 min 2,9 UV-I 512 W/m 14,6 km/h (3 Bft)
29.07.2014 12:48 25,2 C 22,8 C 82 % 1010,0 hPa 0,0 l/m 2 min 0 min 3,3 UV-I 424 W/m 16,7 km/h (3 Bft)
29.07.2014 12:50 25,1 C 22,2 C 82 % 1010,0 hPa 0,0 l/m 2 min 0 min 3,5 UV-I 529 W/m 16,7 km/h (3 Bft)
29.07.2014 12:52 25,0 C 21,7 C 82 % 1010,0 hPa 0,0 l/m 2 min 0 min 2,4 UV-I 404 W/m 18,8 km/h (3 Bft)
29.07.2014 12:54 24,9 C 21,7 C 82 % 1010,0 hPa 0,0 l/m 0 min 0 min 2,3 UV-I 328 W/m 16,7 km/h (3 Bft)
29.07.2014 12:56 24,8 C 21,7 C 82 % 1010,0 hPa 0,0 l/m 0 min 0 min 2,3 UV-I 329 W/m 16,7 km/h (3 Bft)
29.07.2014 12:58 24,7 C 21,7 C 83 % 1009,8 hPa 0,0 l/m 0 min 0 min 2,2 UV-I 257 W/m 12,6 km/h (3 Bft)
29.07.2014 13:00 24,7 C 21,7 C 83 % 1009,9 hPa 0,0 l/m 0 min 0 min 3,0 UV-I 278 W/m 12,6 km/h (3 Bft)
29.07.2014 13:02 24,8 C 22,2 C 83 % 1009,9 hPa 0,0 l/m 2 min 0 min 3,7 UV-I 553 W/m 16,7 km/h (3 Bft)
29.07.2014 13:04 25,1 C 22,2 C 82 % 1010,0 hPa 0,0 l/m 2 min 0 min 2,9 UV-I 731 W/m 16,7 km/h (3 Bft)
29.07.2014 13:06 25,1 C 22,2 C 81 % 1009,9 hPa 0,0 l/m 2 min 0 min 3,4 UV-I 732 W/m 14,6 km/h (3 Bft)
29.07.2014 13:08 25,2 C 22,8 C 81 % 1009,9 hPa 0,0 l/m 2 min 0 min 4,0 UV-I 761 W/m 14,6 km/h (3 Bft)
29.07.2014 13:10 25,3 C 22,8 C 81 % 1009,8 hPa 0,0 l/m 2 min 0 min 3,9 UV-I 795 W/m 16,7 km/h (3 Bft)
29.07.2014 13:12 25,6 C 22,8 C 81 % 1009,7 hPa 0,0 l/m 2 min 0 min 3,8 UV-I 801 W/m 16,7 km/h (3 Bft)
29.07.2014 13:14 25,7 C 22,8 C 80 % 1009,8 hPa 0,0 l/m 2 min 0 min 3,6 UV-I 800 W/m 20,9 km/h (4 Bft)
29.07.2014 13:16 25,8 C 22,8 C 79 % 1009,8 hPa 0,0 l/m 2 min 0 min 2,5 UV-I 635 W/m 16,7 km/h (3 Bft)
29.07.2014 13:18 25,6 C 22,8 C 79 % 1009,7 hPa 0,0 l/m 0 min 0 min 2,1 UV-I 306 W/m 14,6 km/h (3 Bft)
29.07.2014 13:20 25,5 C 22,2 C 80 % 1009,8 hPa 0,0 l/m 0 min 0 min 2,3 UV-I 337 W/m 25,1 km/h (4 Bft)
29.07.2014 13:22 25,4 C 22,8 C 79 % 1009,7 hPa 0,0 l/m 0 min 0 min 3,4 UV-I 355 W/m 16,7 km/h (3 Bft)
29.07.2014 13:24 25,4 C 22,8 C 79 % 1009,7 hPa 0,0 l/m 0 min 0 min 3,4 UV-I 355 W/m 12,6 km/h (3 Bft)
29.07.2014 13:26 25,4 C 22,8 C 79 % 1009,7 hPa 0,0 l/m 0 min 0 min 2,9 UV-I 383 W/m 14,6 km/h (3 Bft)
29.07.2014 13:28 25,4 C 22,8 C 80 % 1009,7 hPa 0,0 l/m 2 min 0 min 3,8 UV-I 541 W/m 18,8 km/h (3 Bft)
29.07.2014 13:30 25,6 C 23,3 C 79 % 1009,5 hPa 0,0 l/m 2 min 0 min 4,3 UV-I 788 W/m 12,6 km/h (3 Bft)
29.07.2014 13:32 25,7 C 23,3 C 79 % 1009,6 hPa 0,0 l/m 2 min 0 min 4,3 UV-I 769 W/m 18,8 km/h (3 Bft)
29.07.2014 13:34 25,8 C 23,9 C 80 % 1009,6 hPa 0,0 l/m 2 min 0 min 3,8 UV-I 754 W/m 16,7 km/h (3 Bft)
29.07.2014 13:36 25,9 C 23,9 C 80 % 1009,5 hPa 0,0 l/m 2 min 0 min 2,5 UV-I 503 W/m 12,6 km/h (3 Bft)
29.07.2014 13:38 25,9 C 23,9 C 78 % 1009,5 hPa 0,0 l/m 0 min 0 min 2,2 UV-I 266 W/m 14,6 km/h (3 Bft)
29.07.2014 13:40 25,8 C 23,9 C 79 % 1009,5 hPa 0,0 l/m 0 min 0 min 1,9 UV-I 260 W/m 10,5 km/h (2 Bft)
29.07.2014 13:42 25,7 C 24,4 C 78 % 1009,5 hPa 0,0 l/m 0 min 0 min 1,5 UV-I 258 W/m 25,1 km/h (4 Bft)
29.07.2014 13:44 25,6 C 24,4 C 79 % 1009,5 hPa 0,0 l/m 0 min 0 min 1,0 UV-I 229 W/m 18,8 km/h (3 Bft)
29.07.2014 13:46 25,6 C 24,4 C 80 % 1009,5 hPa 0,0 l/m 0 min 0 min 0,7 UV-I 185 W/m 18,8 km/h (3 Bft)
29.07.2014 13:48 25,4 C 23,9 C 80 % 1009,5 hPa 0,0 l/m 0 min 0 min 0,9 UV-I 181 W/m 14,6 km/h (3 Bft)
29.07.2014 13:50 25,4 C 23,9 C 79 % 1009,4 hPa 0,0 l/m 0 min 0 min 1,1 UV-I 177 W/m 16,7 km/h (3 Bft)
29.07.2014 13:52 25,3 C 23,9 C 80 % 1009,4 hPa 0,0 l/m 0 min 0 min 1,3 UV-I 177 W/m 14,6 km/h (3 Bft)
29.07.2014 13:54 25,1 C 23,9 C 80 % 1009,3 hPa 0,0 l/m 0 min 0 min 1,6 UV-I 184 W/m 12,6 km/h (3 Bft)
29.07.2014 13:56 25,1 C 23,9 C 80 % 1009,3 hPa 0,0 l/m 0 min 0 min 1,9 UV-I 210 W/m 14,6 km/h (3 Bft)
29.07.2014 13:58 25,1 C 24,4 C 80 % 1009,3 hPa 0,0 l/m 0 min 0 min 2,3 UV-I 262 W/m 14,6 km/h (3 Bft)
29.07.2014 14:00 25,1 C 24,4 C 80 % 1009,2 hPa 0,0 l/m 0 min 0 min 2,6 UV-I 295 W/m 14,6 km/h (3 Bft)
29.07.2014 14:02 25,2 C 25,0 C 82 % 1009,2 hPa 0,0 l/m 0 min 0 min 3,2 UV-I 337 W/m 14,6 km/h (3 Bft)
29.07.2014 14:04 25,5 C 25,6 C 80 % 1009,2 hPa 0,0 l/m 2 min 0 min 4,0 UV-I 653 W/m 10,5 km/h (2 Bft)
29.07.2014 14:06 25,8 C 25,6 C 79 % 1009,1 hPa 0,0 l/m 2 min 0 min 4,2 UV-I 745 W/m 18,8 km/h (3 Bft)
29.07.2014 14:08 26,3 C 26,1 C 80 % 1009,1 hPa 0,0 l/m 2 min 0 min 4,4 UV-I 775 W/m 14,6 km/h (3 Bft)
29.07.2014 14:10 26,6 C 26,7 C 76 % 1009,1 hPa 0,0 l/m 2 min 0 min 4,5 UV-I 818 W/m 14,6 km/h (3 Bft)
29.07.2014 14:12 26,8 C 26,7 C 76 % 1009,1 hPa 0,0 l/m 2 min 0 min 4,0 UV-I 762 W/m 14,6 km/h (3 Bft)
29.07.2014 14:14 26,9 C 26,7 C 75 % 1009,1 hPa 0,0 l/m 2 min 0 min 3,8 UV-I 675 W/m 23,0 km/h (4 Bft)
29.07.2014 14:16 26,8 C 26,7 C 74 % 1009,0 hPa 0,0 l/m 2 min 0 min 4,1 UV-I 815 W/m 18,8 km/h (3 Bft)
29.07.2014 14:18 26,7 C 26,7 C 73 % 1009,0 hPa 0,0 l/m 2 min 0 min 3,7 UV-I 862 W/m 23,0 km/h (4 Bft)
29.07.2014 14:20 26,6 C 26,1 C 75 % 1009,1 hPa 0,0 l/m 2 min 0 min 2,0 UV-I 666 W/m 25,1 km/h (4 Bft)
29.07.2014 14:22 26,3 C 25,6 C 74 % 1009,1 hPa 0,0 l/m 2 min 0 min 0,8 UV-I 582 W/m 25,1 km/h (4 Bft)
29.07.2014 14:24 25,9 C 24,4 C 75 % 1009,0 hPa 0,0 l/m 0 min 0 min 0,0 UV-I 96 W/m 31,4 km/h (5 Bft)
29.07.2014 14:26 25,5 C 23,3 C 78 % 1009,0 hPa 0,0 l/m 0 min 2 min 0,0 UV-I 81 W/m 23,0 km/h (4 Bft)
29.07.2014 14:28 25,1 C 22,2 C 80 % 1009,1 hPa 0,0 l/m 0 min 0 min 0,0 UV-I 73 W/m 20,9 km/h (4 Bft)
29.07.2014 14:30 24,6 C 21,7 C 82 % 1009,0 hPa 0,0 l/m 0 min 0 min 0,0 UV-I 59 W/m 20,9 km/h (4 Bft)
29.07.2014 14:32 24,2 C 21,1 C 83 % 1009,1 hPa 0,2 l/m 0 min 2 min 0,0 UV-I 49 W/m 23,0 km/h (4 Bft)
29.07.2014 14:34 23,9 C 20,6 C 85 % 1009,1 hPa 0,4 l/m 0 min 2 min 0,0 UV-I 42 W/m 18,8 km/h (3 Bft)
29.07.2014 14:36 23,5 C 20,6 C 86 % 1009,1 hPa 0,0 l/m 0 min 2 min 0,0 UV-I 39 W/m 14,6 km/h (3 Bft)
29.07.2014 14:38 23,2 C 20,0 C 88 % 1009,0 hPa 0,2 l/m 0 min 2 min 0,0 UV-I 37 W/m 8,4 km/h (2 Bft)
29.07.2014 14:40 22,9 C 20,6 C 90 % 1009,0 hPa 0,0 l/m 0 min 2 min 0,0 UV-I 36 W/m 10,5 km/h (2 Bft)
29.07.2014 14:42 22,8 C 20,6 C 91 % 1009,0 hPa 0,0 l/m 0 min 2 min 0,0 UV-I 34 W/m 10,5 km/h (2 Bft)
29.07.2014 14:44 22,7 C 20,6 C 92 % 1009,1 hPa 1,6 l/m 0 min 2 min 0,0 UV-I 28 W/m 8,4 km/h (2 Bft)
29.07.2014 14:46 22,6 C 20,6 C 93 % 1009,2 hPa 1,4 l/m 0 min 2 min 0,0 UV-I 23 W/m 16,7 km/h (3 Bft)
29.07.2014 14:48 22,4 C 20,0 C 93 % 1009,5 hPa 1,0 l/m 0 min 2 min 0,0 UV-I 21 W/m 39,7 km/h (6 Bft)
29.07.2014 14:50 22,1 C 19,4 C 93 % 1009,4 hPa 2,0 l/m 0 min 2 min 0,0 UV-I 19 W/m 35,6 km/h (5 Bft)
29.07.2014 14:52 21,7 C 19,4 C 93 % 1009,4 hPa 1,0 l/m 0 min 2 min 0,0 UV-I 19 W/m 33,5 km/h (5 Bft)
29.07.2014 14:54 21,3 C 18,9 C 93 % 1009,4 hPa 1,4 l/m 0 min 2 min 0,0 UV-I 18 W/m 46,0 km/h (6 Bft)
29.07.2014 14:56 21,0 C 18,9 C 92 % 1009,5 hPa 1,6 l/m 0 min 2 min 0,0 UV-I 19 W/m 27,2 km/h (4 Bft)
29.07.2014 14:58 20,8 C 18,3 C 92 % 1009,5 hPa 1,6 l/m 0 min 2 min 0,0 UV-I 18 W/m 14,6 km/h (3 Bft)
29.07.2014 15:00 20,7 C 18,3 C 93 % 1009,5 hPa 1,0 l/m 0 min 2 min 0,0 UV-I 18 W/m 12,6 km/h (3 Bft)
29.07.2014 15:02 20,6 C 18,3 C 94 % 1010,1 hPa 2,0 l/m 0 min 2 min 0,0 UV-I 14 W/m 90,0 km/h (10 Bft)
29.07.2014 15:04 20,3 C 17,8 C 93 % 1010,4 hPa 5,8 l/m 0 min 2 min 0,0 UV-I 13 W/m 43,9 km/h (6 Bft)
29.07.2014 15:06 20,0 C 17,2 C 93 % 1009,3 hPa 2,8 l/m 0 min 2 min 0,0 UV-I 24 W/m 25,1 km/h (4 Bft)
29.07.2014 15:08 19,9 C 17,8 C 93 % 1009,0 hPa 0,2 l/m 0 min 2 min 0,0 UV-I 39 W/m 14,6 km/h (3 Bft)
29.07.2014 15:10 19,9 C 17,8 C 94 % 1009,0 hPa 0,0 l/m 0 min 2 min 0,0 UV-I 54 W/m 10,5 km/h (2 Bft)
29.07.2014 15:12 19,8 C 17,8 C 94 % 1009,0 hPa 0,0 l/m 0 min 0 min 0,0 UV-I 66 W/m 6,3 km/h (2 Bft)
29.07.2014 15:14 19,8 C 17,8 C 94 % 1009,0 hPa 0,0 l/m 0 min 0 min 0,0 UV-I 76 W/m 4,2 km/h (1 Bft)
29.07.2014 15:16 19,8 C 17,8 C 94 % 1008,8 hPa 0,0 l/m 0 min 0 min 0,0 UV-I 85 W/m 12,6 km/h (3 Bft)
29.07.2014 15:18 19,9 C 18,3 C 95 % 1008,8 hPa 0,0 l/m 0 min 0 min 0,0 UV-I 92 W/m 8,4 km/h (2 Bft)
29.07.2014 15:20 20,0 C 18,3 C 95 % 1008,8 hPa 0,0 l/m 0 min 0 min 0,0 UV-I 97 W/m 6,3 km/h (2 Bft)
29.07.2014 15:22 20,2 C 18,9 C 96 % 1008,8 hPa 0,0 l/m 0 min 0 min 0,0 UV-I 99 W/m 0,0 km/h (0 Bft)
29.07.2014 15:24 20,4 C 18,9 C 96 % 1008,8 hPa 0,0 l/m 0 min 0 min 0,0 UV-I 101 W/m 0,0 km/h (0 Bft)
29.07.2014 15:26 20,6 C 18,9 C 97 % 1008,7 hPa 0,0 l/m 0 min 0 min 0,0 UV-I 104 W/m 0,0 km/h (0 Bft)
29.07.2014 15:28 20,7 C 19,4 C 97 % 1008,7 hPa 0,0 l/m 0 min 0 min 0,0 UV-I 108 W/m 0,0 km/h (0 Bft)
29.07.2014 15:30 20,9 C 19,4 C 97 % 1008,6 hPa 0,0 l/m 0 min 0 min 0,0 UV-I 113 W/m 0,0 km/h (0 Bft)
29.07.2014 15:32 21,0 C 19,4 C 97 % 1008,6 hPa 0,0 l/m 0 min 0 min 0,4 UV-I 118 W/m 0,0 km/h (0 Bft)
29.07.2014 15:34 21,0 C 19,4 C 97 % 1008,6 hPa 0,0 l/m 0 min 0 min 0,5 UV-I 122 W/m 0,0 km/h (0 Bft)
29.07.2014 15:36 21,1 C 20,0 C 97 % 1008,5 hPa 0,0 l/m 0 min 0 min 0,5 UV-I 127 W/m 6,3 km/h (2 Bft)
29.07.2014 15:38 21,1 C 20,0 C 98 % 1008,5 hPa 0,0 l/m 0 min 0 min 0,6 UV-I 129 W/m 0,0 km/h (0 Bft)
29.07.2014 15:40 21,1 C 20,0 C 97 % 1008,5 hPa 0,0 l/m 0 min 0 min 0,6 UV-I 133 W/m 0,0 km/h (0 Bft)
29.07.2014 15:42 21,1 C 20,0 C 97 % 1008,5 hPa 0,0 l/m 0 min 0 min 0,6 UV-I 135 W/m 0,0 km/h (0 Bft)
29.07.2014 15:44 21,0 C 20,0 C 98 % 1008,5 hPa 0,0 l/m 0 min 0 min 0,6 UV-I 138 W/m 0,0 km/h (0 Bft)
29.07.2014 15:46 21,0 C 20,0 C 98 % 1008,5 hPa 0,0 l/m 0 min 0 min 0,7 UV-I 140 W/m 0,0 km/h (0 Bft)
29.07.2014 15:48 21,1 C 20,0 C 98 % 1008,4 hPa 0,0 l/m 0 min 0 min 0,7 UV-I 144 W/m 0,0 km/h (0 Bft)
29.07.2014 15:50 21,2 C 20,0 C 98 % 1008,4 hPa 0,0 l/m 0 min 0 min 0,7 UV-I 148 W/m 0,0 km/h (0 Bft)
29.07.2014 15:52 21,3 C 20,0 C 98 % 1008,4 hPa 0,0 l/m 0 min 0 min 0,7 UV-I 151 W/m 0,0 km/h (0 Bft)
29.07.2014 15:54 21,3 C 20,6 C 98 % 1008,4 hPa 0,0 l/m 0 min 0 min 0,8 UV-I 154 W/m 2,1 km/h (1 Bft)
29.07.2014 15:56 21,4 C 20,6 C 98 % 1008,5 hPa 0,0 l/m 0 min 0 min 0,8 UV-I 156 W/m 0,0 km/h (0 Bft)
29.07.2014 15:58 21,4 C 20,6 C 98 % 1008,6 hPa 0,0 l/m 0 min 0 min 0,7 UV-I 156 W/m 0,0 km/h (0 Bft)
29.07.2014 16:00 21,4 C 20,6 C 98 % 1008,6 hPa 0,0 l/m 0 min 0 min 0,7 UV-I 156 W/m 0,0 km/h (0 Bft)
29.07.2014 16:02 21,4 C 20,6 C 98 % 1008,7 hPa 0,0 l/m 0 min 0 min 0,7 UV-I 155 W/m 2,1 km/h (1 Bft)
29.07.2014 16:04 21,5 C 20,6 C 98 % 1008,7 hPa 0,0 l/m 0 min 0 min 0,7 UV-I 153 W/m 0,0 km/h (0 Bft)
29.07.2014 16:06 21,5 C 20,6 C 98 % 1008,6 hPa 0,0 l/m 0 min 0 min 0,6 UV-I 149 W/m 0,0 km/h (0 Bft)
29.07.2014 16:08 21,6 C 20,6 C 98 % 1008,6 hPa 0,0 l/m 0 min 0 min 0,6 UV-I 152 W/m 4,2 km/h (1 Bft)
29.07.2014 16:10 21,6 C 20,6 C 98 % 1008,6 hPa 0,0 l/m 0 min 0 min 0,6 UV-I 155 W/m 6,3 km/h (2 Bft)
29.07.2014 16:12 21,7 C 20,6 C 98 % 1008,5 hPa 0,0 l/m 0 min 0 min 0,7 UV-I 158 W/m 6,3 km/h (2 Bft)
29.07.2014 16:14 21,8 C 20,6 C 98 % 1008,5 hPa 0,0 l/m 0 min 0 min 0,7 UV-I 162 W/m 4,2 km/h (1 Bft)
29.07.2014 16:16 21,9 C 20,6 C 99 % 1008,4 hPa 0,0 l/m 0 min 0 min 0,7 UV-I 165 W/m 0,0 km/h (0 Bft)
29.07.2014 16:18 21,9 C 21,1 C 99 % 1008,4 hPa 0,0 l/m 0 min 0 min 0,7 UV-I 169 W/m 6,3 km/h (2 Bft)
29.07.2014 16:20 22,1 C 21,1 C 99 % 1008,4 hPa 0,0 l/m 0 min 0 min 0,7 UV-I 169 W/m 4,2 km/h (1 Bft)
29.07.2014 16:22 22,1 C 21,1 C 99 % 1008,4 hPa 0,0 l/m 0 min 0 min 0,7 UV-I 169 W/m 8,4 km/h (2 Bft)
29.07.2014 16:24 22,2 C 21,1 C 99 % 1008,4 hPa 0,0 l/m 0 min 0 min 0,7 UV-I 174 W/m 6,3 km/h (2 Bft)
29.07.2014 16:26 22,2 C 21,1 C 99 % 1008,4 hPa 0,0 l/m 0 min 0 min 0,7 UV-I 180 W/m 0,0 km/h (0 Bft)
29.07.2014 16:28 22,2 C 21,1 C 99 % 1008,3 hPa 0,0 l/m 0 min 0 min 0,7 UV-I 184 W/m 0,0 km/h (0 Bft)
29.07.2014 16:30 22,2 C 21,1 C 99 % 1008,3 hPa 0,0 l/m 0 min 0 min 0,7 UV-I 186 W/m 0,0 km/h (0 Bft)
29.07.2014 16:32 22,3 C 21,1 C 99 % 1008,3 hPa 0,0 l/m 0 min 0 min 0,7 UV-I 186 W/m 0,0 km/h (0 Bft)
29.07.2014 16:34 22,3 C 21,1 C 99 % 1008,3 hPa 0,0 l/m 0 min 0 min 0,7 UV-I 186 W/m 0,0 km/h (0 Bft)
29.07.2014 16:36 22,3 C 21,1 C 99 % 1008,3 hPa 0,0 l/m 0 min 0 min 0,7 UV-I 182 W/m 0,0 km/h (0 Bft)
29.07.2014 16:38 22,3 C 21,1 C 99 % 1008,3 hPa 0,0 l/m 0 min 0 min 0,6 UV-I 174 W/m 0,0 km/h (0 Bft)
29.07.2014 16:40 22,3 C 21,1 C 99 % 1008,3 hPa 0,0 l/m 0 min 0 min 0,5 UV-I 170 W/m 0,0 km/h (0 Bft)
29.07.2014 16:42 22,3 C 21,1 C 99 % 1008,3 hPa 0,0 l/m 0 min 0 min 0,1 UV-I 164 W/m 0,0 km/h (0 Bft)
29.07.2014 16:44 22,4 C 21,1 C 99 % 1008,3 hPa 0,0 l/m 0 min 0 min 0,0 UV-I 150 W/m 0,0 km/h (0 Bft)
29.07.2014 16:46 22,4 C 21,1 C 99 % 1008,2 hPa 0,0 l/m 0 min 0 min 0,0 UV-I 134 W/m 2,1 km/h (1 Bft)
29.07.2014 16:48 22,4 C 21,1 C 99 % 1008,2 hPa 0,0 l/m 0 min 0 min 0,0 UV-I 113 W/m 0,0 km/h (0 Bft)
29.07.2014 16:50 22,5 C 21,1 C 99 % 1008,2 hPa 0,0 l/m 0 min 0 min 0,0 UV-I 93 W/m 2,1 km/h (1 Bft)
29.07.2014 16:52 22,5 C 21,1 C 99 % 1008,2 hPa 0,0 l/m 0 min 0 min 0,0 UV-I 76 W/m 2,1 km/h (1 Bft)
29.07.2014 16:54 22,5 C 21,1 C 99 % 1008,2 hPa 0,0 l/m 0 min 2 min 0,0 UV-I 60 W/m 0,0 km/h (0 Bft)
29.07.2014 16:56 22,4 C 21,1 C 99 % 1008,3 hPa 0,0 l/m 0 min 2 min 0,0 UV-I 46 W/m 8,4 km/h (2 Bft)
29.07.2014 16:58 22,4 C 20,6 C 99 % 1008,4 hPa 0,0 l/m 0 min 2 min 0,0 UV-I 37 W/m 6,3 km/h (2 Bft)
29.07.2014 17:00 22,4 C 20,6 C 99 % 1008,5 hPa 0,6 l/m 0 min 2 min 0,0 UV-I 33 W/m 2,1 km/h (1 Bft)
29.07.2014 17:02 22,4 C 20,6 C 99 % 1008,6 hPa 0,4 l/m 0 min 2 min 0,0 UV-I 30 W/m 6,3 km/h (2 Bft)
29.07.2014 17:04 22,3 C 20,6 C 99 % 1008,8 hPa 1,6 l/m 0 min 2 min 0,0 UV-I 29 W/m 8,4 km/h (2 Bft)
29.07.2014 17:06 22,2 C 20,6 C 98 % 1008,7 hPa 0,0 l/m 0 min 2 min 0,0 UV-I 32 W/m 14,6 km/h (3 Bft)
29.07.2014 17:08 22,0 C 20,6 C 98 % 1008,8 hPa 0,0 l/m 0 min 2 min 0,0 UV-I 33 W/m 14,6 km/h (3 Bft)
29.07.2014 17:10 21,9 C 20,0 C 98 % 1009,0 hPa 0,0 l/m 0 min 0 min 0,0 UV-I 34 W/m 10,5 km/h (2 Bft)
29.07.2014 17:12 21,9 C 20,0 C 98 % 1009,1 hPa 0,0 l/m 0 min 0 min 0,0 UV-I 28 W/m 8,4 km/h (2 Bft)
29.07.2014 17:14 21,7 C 20,0 C 98 % 1009,1 hPa 0,0 l/m 0 min 0 min 0,0 UV-I 18 W/m 31,4 km/h (5 Bft)
29.07.2014 17:16 21,4 C 19,4 C 98 % 1009,2 hPa 0,0 l/m 0 min 2 min 0,0 UV-I 14 W/m 35,6 km/h (5 Bft)
29.07.2014 17:18 21,1 C 18,9 C 97 % 1009,2 hPa 0,2 l/m 0 min 2 min 0,0 UV-I 15 W/m 50,2 km/h (7 Bft)
29.07.2014 17:20 20,8 C 18,3 C 97 % 1009,0 hPa 0,2 l/m 0 min 2 min 0,0 UV-I 16 W/m 37,7 km/h (5 Bft)
29.07.2014 17:22 20,6 C 18,3 C 96 % 1009,2 hPa 0,8 l/m 0 min 2 min 0,0 UV-I 16 W/m 37,7 km/h (5 Bft)
29.07.2014 17:24 20,4 C 18,3 C 96 % 1009,2 hPa 0,4 l/m 0 min 2 min 0,0 UV-I 17 W/m 31,4 km/h (5 Bft)
29.07.2014 17:26 20,2 C 17,8 C 96 % 1009,3 hPa 1,2 l/m 0 min 2 min 0,0 UV-I 16 W/m 35,6 km/h (5 Bft)
29.07.2014 17:28 20,0 C 17,8 C 96 % 1009,4 hPa 2,0 l/m 0 min 2 min 0,0 UV-I 14 W/m 27,2 km/h (4 Bft)
29.07.2014 17:30 19,8 C 17,8 C 96 % 1009,3 hPa 1,6 l/m 0 min 2 min 0,0 UV-I 14 W/m 25,1 km/h (4 Bft)
29.07.2014 17:32 19,7 C 17,8 C 96 % 1009,2 hPa 1,8 l/m 0 min 2 min 0,0 UV-I 14 W/m 16,7 km/h (3 Bft)
29.07.2014 17:34 19,6 C 17,8 C 96 % 1009,1 hPa 1,8 l/m 0 min 2 min 0,0 UV-I 15 W/m 14,6 km/h (3 Bft)
29.07.2014 17:36 19,6 C 17,8 C 96 % 1009,0 hPa 1,0 l/m 0 min 2 min 0,0 UV-I 17 W/m 8,4 km/h (2 Bft)
29.07.2014 17:38 19,5 C 17,8 C 97 % 1008,9 hPa 1,2 l/m 0 min 2 min 0,0 UV-I 20 W/m 0,0 km/h (0 Bft)
29.07.2014 17:40 19,5 C 17,8 C 97 % 1008,8 hPa 0,8 l/m 0 min 2 min 0,0 UV-I 23 W/m 2,1 km/h (1 Bft)
29.07.2014 17:42 19,4 C 17,8 C 97 % 1008,8 hPa 0,6 l/m 0 min 2 min 0,0 UV-I 29 W/m 2,1 km/h (1 Bft)
29.07.2014 17:44 19,4 C 17,8 C 97 % 1008,7 hPa 0,4 l/m 0 min 2 min 0,0 UV-I 35 W/m 0,0 km/h (0 Bft)
29.07.2014 17:46 19,5 C 17,8 C 97 % 1008,7 hPa 0,2 l/m 0 min 2 min 0,0 UV-I 39 W/m 0,0 km/h (0 Bft)
29.07.2014 17:48 19,5 C 18,3 C 97 % 1008,7 hPa 0,2 l/m 0 min 2 min 0,0 UV-I 43 W/m 8,4 km/h (2 Bft)
29.07.2014 17:50 19,5 C 18,3 C 97 % 1008,8 hPa 0,2 l/m 0 min 2 min 0,0 UV-I 47 W/m 10,5 km/h (2 Bft)
29.07.2014 17:52 19,5 C 18,3 C 97 % 1008,7 hPa 0,0 l/m 0 min 2 min 0,0 UV-I 51 W/m 8,4 km/h (2 Bft)
29.07.2014 17:54 19,6 C 18,3 C 98 % 1008,7 hPa 0,0 l/m 0 min 2 min 0,0 UV-I 54 W/m 6,3 km/h (2 Bft)
29.07.2014 17:56 19,6 C 18,3 C 98 % 1008,6 hPa 0,0 l/m 0 min 2 min 0,0 UV-I 54 W/m 8,4 km/h (2 Bft)
29.07.2014 17:58 19,6 C 18,3 C 98 % 1008,7 hPa 0,0 l/m 0 min 2 min 0,0 UV-I 56 W/m 8,4 km/h (2 Bft)
29.07.2014 18:00 19,6 C 18,3 C 98 % 1008,7 hPa 0,0 l/m 0 min 2 min 0,0 UV-I 56 W/m 10,5 km/h (2 Bft)
29.07.2014 18:02 19,6 C 18,3 C 98 % 1008,6 hPa 0,2 l/m 0 min 2 min 0,0 UV-I 57 W/m 6,3 km/h (2 Bft)
29.07.2014 18:06 19,5 C 18,3 C 98 % 1008,7 hPa 0,0 l/m 0 min 2 min 0,0 UV-I 57 W/m 6,3 km/h (2 Bft)
29.07.2014 18:08 19,5 C 18,3 C 98 % 1008,7 hPa 0,0 l/m 0 min 2 min 0,0 UV-I 54 W/m 0,0 km/h (0 Bft)
29.07.2014 18:10 19,6 C 18,3 C 98 % 1008,6 hPa 0,0 l/m 0 min 2 min 0,0 UV-I 55 W/m 0,0 km/h (0 Bft)
29.07.2014 18:12 19,6 C 18,3 C 98 % 1008,6 hPa 0,0 l/m 0 min 2 min 0,0 UV-I 59 W/m 4,2 km/h (1 Bft)
29.07.2014 18:14 19,6 C 18,3 C 98 % 1008,6 hPa 0,0 l/m 0 min 2 min 0,0 UV-I 61 W/m 0,0 km/h (0 Bft)
29.07.2014 18:16 19,7 C 18,3 C 98 % 1008,6 hPa 0,0 l/m 0 min 0 min 0,0 UV-I 62 W/m 2,1 km/h (1 Bft)
29.07.2014 18:18 19,7 C 18,3 C 99 % 1008,6 hPa 0,0 l/m 0 min 2 min 0,0 UV-I 62 W/m 10,5 km/h (2 Bft)
29.07.2014 18:20 19,6 C 18,3 C 98 % 1008,5 hPa 0,0 l/m 0 min 0 min 0,0 UV-I 62 W/m 4,2 km/h (1 Bft)
29.07.2014 18:22 19,6 C 18,3 C 98 % 1008,5 hPa 0,0 l/m 0 min 2 min 0,0 UV-I 62 W/m 2,1 km/h (1 Bft)
29.07.2014 18:24 19,6 C 18,3 C 98 % 1008,5 hPa 0,0 l/m 0 min 0 min 0,0 UV-I 61 W/m 0,0 km/h (0 Bft)
29.07.2014 18:26 19,6 C 18,3 C 98 % 1008,5 hPa 0,0 l/m 0 min 0 min 0,0 UV-I 59 W/m 6,3 km/h (2 Bft)
29.07.2014 18:28 19,7 C 18,3 C 99 % 1008,4 hPa 0,0 l/m 0 min 0 min 0,0 UV-I 58 W/m 6,3 km/h (2 Bft)
29.07.2014 18:30 19,8 C 18,3 C 99 % 1008,4 hPa 0,0 l/m 0 min 0 min 0,0 UV-I 56 W/m 2,1 km/h (1 Bft)
29.07.2014 18:32 19,8 C 18,3 C 99 % 1008,3 hPa 0,0 l/m 0 min 0 min 0,0 UV-I 54 W/m 0,0 km/h (0 Bft)
29.07.2014 18:34 19,8 C 18,3 C 99 % 1008,3 hPa 0,0 l/m 0 min 0 min 0,0 UV-I 53 W/m 0,0 km/h (0 Bft)
29.07.2014 18:36 19,8 C 18,3 C 99 % 1008,2 hPa 0,0 l/m 0 min 0 min 0,0 UV-I 52 W/m 0,0 km/h (0 Bft)
29.07.2014 18:38 19,7 C 18,3 C 99 % 1008,2 hPa 0,0 l/m 0 min 0 min 0,0 UV-I 50 W/m 0,0 km/h (0 Bft)
29.07.2014 18:40 19,8 C 18,3 C 99 % 1008,2 hPa 0,0 l/m 0 min 0 min 0,0 UV-I 49 W/m 0,0 km/h (0 Bft)
29.07.2014 18:42 19,8 C 18,3 C 99 % 1008,2 hPa 0,0 l/m 0 min 0 min 0,0 UV-I 48 W/m 0,0 km/h (0 Bft)
29.07.2014 18:44 19,8 C 18,3 C 99 % 1008,2 hPa 0,0 l/m 0 min 0 min 0,0 UV-I 47 W/m 0,0 km/h (0 Bft)
29.07.2014 18:46 19,8 C 18,3 C 99 % 1008,1 hPa 0,0 l/m 0 min 0 min 0,0 UV-I 47 W/m 0,0 km/h (0 Bft)
29.07.2014 18:48 19,8 C 18,3 C 99 % 1008,2 hPa 0,0 l/m 0 min 0 min 0,0 UV-I 47 W/m 0,0 km/h (0 Bft)
29.07.2014 18:50 19,8 C 18,3 C 99 % 1008,2 hPa 0,0 l/m 0 min 0 min 0,0 UV-I 49 W/m 0,0 km/h (0 Bft)
29.07.2014 18:52 19,8 C 18,3 C 99 % 1008,2 hPa 0,0 l/m 0 min 0 min 0,0 UV-I 49 W/m 0,0 km/h (0 Bft)
29.07.2014 18:54 19,8 C 18,3 C 99 % 1008,2 hPa 0,0 l/m 0 min 0 min 0,0 UV-I 51 W/m 0,0 km/h (0 Bft)
29.07.2014 18:56 19,8 C 18,3 C 99 % 1008,2 hPa 0,0 l/m 0 min 0 min 0,0 UV-I 53 W/m 0,0 km/h (0 Bft)
29.07.2014 18:58 19,8 C 18,3 C 99 % 1008,2 hPa 0,0 l/m 0 min 0 min 0,0 UV-I 54 W/m 0,0 km/h (0 Bft)
29.07.2014 19:00 19,8 C 18,3 C 99 % 1008,1 hPa 0,0 l/m 0 min 0 min 0,0 UV-I 54 W/m 0,0 km/h (0 Bft)
29.07.2014 19:02 19,8 C 18,9 C 99 % 1008,2 hPa 0,0 l/m 0 min 0 min 0,0 UV-I 55 W/m 0,0 km/h (0 Bft)
29.07.2014 19:04 19,8 C 18,9 C 99 % 1008,2 hPa 0,0 l/m 0 min 0 min 0,0 UV-I 56 W/m 0,0 km/h (0 Bft)
29.07.2014 19:06 19,8 C 18,9 C 99 % 1008,2 hPa 0,0 l/m 0 min 0 min 0,0 UV-I 56 W/m 0,0 km/h (0 Bft)
29.07.2014 19:08 19,9 C 18,9 C 99 % 1008,2 hPa 0,0 l/m 0 min 0 min 0,0 UV-I 54 W/m 0,0 km/h (0 Bft)
29.07.2014 19:10 19,9 C 18,9 C 99 % 1008,3 hPa 0,0 l/m 0 min 0 min 0,0 UV-I 54 W/m 0,0 km/h (0 Bft)
29.07.2014 19:12 19,9 C 18,9 C 99 % 1008,3 hPa 0,0 l/m 0 min 0 min 0,0 UV-I 54 W/m 0,0 km/h (0 Bft)
29.07.2014 19:14 19,9 C 18,9 C 99 % 1008,3 hPa 0,0 l/m 0 min 0 min 0,0 UV-I 53 W/m 0,0 km/h (0 Bft)
29.07.2014 19:16 19,9 C 18,9 C 99 % 1008,3 hPa 0,0 l/m 0 min 0 min 0,0 UV-I 51 W/m 0,0 km/h (0 Bft)
29.07.2014 19:18 19,8 C 18,9 C 99 % 1008,4 hPa 0,0 l/m 0 min 0 min 0,0 UV-I 50 W/m 0,0 km/h (0 Bft)
29.07.2014 19:20 19,8 C 18,9 C 99 % 1008,4 hPa 0,0 l/m 0 min 0 min 0,0 UV-I 48 W/m 0,0 km/h (0 Bft)
29.07.2014 19:22 19,8 C 18,3 C 99 % 1008,5 hPa 0,0 l/m 0 min 0 min 0,0 UV-I 47 W/m 0,0 km/h (0 Bft)
29.07.2014 19:24 19,8 C 18,3 C 99 % 1008,5 hPa 0,0 l/m 0 min 0 min 0,0 UV-I 45 W/m 0,0 km/h (0 Bft)
29.07.2014 19:26 19,8 C 18,3 C 99 % 1008,4 hPa 0,0 l/m 0 min 0 min 0,0 UV-I 44 W/m 0,0 km/h (0 Bft)
29.07.2014 19:28 19,8 C 18,3 C 99 % 1008,5 hPa 0,0 l/m 0 min 0 min 0,0 UV-I 42 W/m 0,0 km/h (0 Bft)
29.07.2014 19:30 19,8 C 18,3 C 99 % 1008,4 hPa 0,0 l/m 0 min 0 min 0,0 UV-I 41 W/m 2,1 km/h (1 Bft)
29.07.2014 19:32 19,8 C 18,3 C 99 % 1008,5 hPa 0,0 l/m 0 min 0 min 0,0 UV-I 40 W/m 0,0 km/h (0 Bft)
29.07.2014 19:34 19,8 C 18,3 C 99 % 1008,4 hPa 0,0 l/m 0 min 0 min 0,0 UV-I 39 W/m 0,0 km/h (0 Bft)
29.07.2014 19:36 19,8 C 18,3 C 99 % 1008,4 hPa 0,0 l/m 0 min 0 min 0,0 UV-I 39 W/m 0,0 km/h (0 Bft)
29.07.2014 19:38 19,8 C 18,3 C 99 % 1008,4 hPa 0,0 l/m 0 min 0 min 0,0 UV-I 39 W/m 0,0 km/h (0 Bft)
29.07.2014 19:40 19,8 C 18,3 C 99 % 1008,4 hPa 0,0 l/m 0 min 0 min 0,0 UV-I 37 W/m 0,0 km/h (0 Bft)
29.07.2014 19:42 19,8 C 18,3 C 99 % 1008,4 hPa 0,0 l/m 0 min 0 min 0,0 UV-I 37 W/m 0,0 km/h (0 Bft)
29.07.2014 19:44 19,8 C 18,3 C 99 % 1008,5 hPa 0,0 l/m 0 min 0 min 0,0 UV-I 35 W/m 0,0 km/h (0 Bft)
29.07.2014 19:46 19,8 C 18,9 C 99 % 1008,5 hPa 0,0 l/m 0 min 0 min 0,0 UV-I 35 W/m 0,0 km/h (0 Bft)
29.07.2014 19:48 19,8 C 18,9 C 99 % 1008,5 hPa 0,0 l/m 0 min 0 min 0,0 UV-I 34 W/m 0,0 km/h (0 Bft)
29.07.2014 19:50 19,8 C 18,3 C 99 % 1008,5 hPa 0,0 l/m 0 min 0 min 0,0 UV-I 33 W/m 0,0 km/h (0 Bft)
29.07.2014 19:52 19,8 C 18,3 C 99 % 1008,5 hPa 0,0 l/m 0 min 0 min 0,0 UV-I 32 W/m 0,0 km/h (0 Bft)
29.07.2014 19:54 19,8 C 18,3 C 99 % 1008,5 hPa 0,0 l/m 0 min 0 min 0,0 UV-I 30 W/m 0,0 km/h (0 Bft)
29.07.2014 19:56 19,8 C 18,3 C 99 % 1008,5 hPa 0,0 l/m 0 min 0 min 0,0 UV-I 30 W/m 0,0 km/h (0 Bft)
29.07.2014 19:58 19,8 C 18,3 C 99 % 1008,6 hPa 0,0 l/m 0 min 0 min 0,0 UV-I 28 W/m 0,0 km/h (0 Bft)
29.07.2014 20:00 19,8 C 18,3 C 100 % 1008,6 hPa 0,0 l/m 0 min 0 min 0,0 UV-I 26 W/m 0,0 km/h (0 Bft)
29.07.2014 20:02 19,8 C 18,3 C 100 % 1008,6 hPa 0,0 l/m 0 min 0 min 0,0 UV-I 26 W/m 0,0 km/h (0 Bft)
29.07.2014 20:04 19,8 C 18,3 C 100 % 1008,5 hPa 0,0 l/m 0 min 0 min 0,0 UV-I 25 W/m 0,0 km/h (0 Bft)
29.07.2014 20:06 19,8 C 18,3 C 100 % 1008,6 hPa 0,0 l/m 0 min 0 min 0,0 UV-I 24 W/m 0,0 km/h (0 Bft)
29.07.2014 20:08 19,8 C 18,3 C 100 % 1008,6 hPa 0,0 l/m 0 min 0 min 0,0 UV-I 23 W/m 0,0 km/h (0 Bft)
29.07.2014 20:10 19,8 C 18,3 C 100 % 1008,6 hPa 0,0 l/m 0 min 0 min 0,0 UV-I 21 W/m 0,0 km/h (0 Bft)
29.07.2014 20:12 19,8 C 18,3 C 100 % 1008,7 hPa 0,0 l/m 0 min 0 min 0,0 UV-I 19 W/m 0,0 km/h (0 Bft)
29.07.2014 20:14 19,8 C 18,9 C 100 % 1008,8 hPa 0,0 l/m 0 min 0 min 0,0 UV-I 18 W/m 0,0 km/h (0 Bft)
29.07.2014 20:16 19,8 C 18,3 C 100 % 1008,7 hPa 0,0 l/m 0 min 0 min 0,0 UV-I 16 W/m 0,0 km/h (0 Bft)
29.07.2014 20:18 19,8 C 18,9 C 100 % 1008,8 hPa 0,0 l/m 0 min 0 min 0,0 UV-I 14 W/m 0,0 km/h (0 Bft)
29.07.2014 20:20 19,9 C 18,9 C 100 % 1008,8 hPa 0,0 l/m 0 min 0 min 0,0 UV-I 14 W/m 6,3 km/h (2 Bft)
29.07.2014 20:22 19,9 C 18,9 C 100 % 1008,8 hPa 0,0 l/m 0 min 0 min 0,0 UV-I 14 W/m 10,5 km/h (2 Bft)
29.07.2014 20:24 19,9 C 18,9 C 99 % 1008,8 hPa 0,0 l/m 0 min 0 min 0,0 UV-I 14 W/m 2,1 km/h (1 Bft)
29.07.2014 20:26 19,9 C 18,9 C 100 % 1008,8 hPa 0,0 l/m 0 min 0 min 0,0 UV-I 14 W/m 2,1 km/h (1 Bft)
29.07.2014 20:28 19,9 C 18,9 C 100 % 1008,8 hPa 0,0 l/m 0 min 0 min 0,0 UV-I 14 W/m 6,3 km/h (2 Bft)
29.07.2014 20:30 19,9 C 18,9 C 100 % 1008,9 hPa 0,0 l/m 0 min 0 min 0,0 UV-I 14 W/m 8,4 km/h (2 Bft)
29.07.2014 20:32 19,9 C 18,9 C 100 % 1008,9 hPa 0,0 l/m 0 min 0 min 0,0 UV-I 14 W/m 10,5 km/h (2 Bft)
29.07.2014 20:34 19,9 C 18,9 C 100 % 1008,9 hPa 0,0 l/m 0 min 0 min 0,0 UV-I 12 W/m 10,5 km/h (2 Bft)
29.07.2014 20:36 19,8 C 18,9 C 100 % 1008,9 hPa 0,0 l/m 0 min 0 min 0,0 UV-I 12 W/m 12,6 km/h (3 Bft)
29.07.2014 20:38 19,8 C 18,9 C 100 % 1009,0 hPa 0,0 l/m 0 min 0 min 0,0 UV-I 11 W/m 10,5 km/h (2 Bft)
29.07.2014 20:40 19,8 C 18,9 C 100 % 1008,9 hPa 0,0 l/m 0 min 0 min 0,0 UV-I 10 W/m 8,4 km/h (2 Bft)
29.07.2014 20:42 19,8 C 18,9 C 100 % 1009,0 hPa 0,0 l/m 0 min 0 min 0,0 UV-I 9 W/m 6,3 km/h (2 Bft)
29.07.2014 20:44 19,8 C 18,9 C 100 % 1009,1 hPa 0,0 l/m 0 min 0 min 0,0 UV-I 9 W/m 0,0 km/h (0 Bft)
29.07.2014 20:46 19,8 C 18,9 C 100 % 1009,1 hPa 0,0 l/m 0 min 0 min 0,0 UV-I 9 W/m 0,0 km/h (0 Bft)
29.07.2014 20:48 19,8 C 18,9 C 100 % 1009,0 hPa 0,0 l/m 0 min 0 min 0,0 UV-I 9 W/m 2,1 km/h (1 Bft)
29.07.2014 20:50 19,8 C 18,9 C 100 % 1009,0 hPa 0,0 l/m 0 min 0 min 0,0 UV-I 7 W/m 6,3 km/h (2 Bft)
29.07.2014 20:52 19,8 C 18,3 C 100 % 1009,0 hPa 0,0 l/m 0 min 0 min 0,0 UV-I 7 W/m 6,3 km/h (2 Bft)
29.07.2014 20:54 19,8 C 18,3 C 100 % 1009,0 hPa 0,0 l/m 0 min 0 min 0,0 UV-I 8 W/m 2,1 km/h (1 Bft)
29.07.2014 20:56 19,7 C 18,3 C 100 % 1008,9 hPa 0,0 l/m 0 min 0 min 0,0 UV-I 8 W/m 0,0 km/h (0 Bft)
29.07.2014 20:58 19,7 C 18,3 C 100 % 1008,9 hPa 0,0 l/m 0 min 0 min 0,0 UV-I 7 W/m 14,6 km/h (3 Bft)
29.07.2014 21:00 19,7 C 18,3 C 100 % 1008,9 hPa 0,0 l/m 0 min 0 min 0,0 UV-I 7 W/m 8,4 km/h (2 Bft)
29.07.2014 21:02 19,7 C 18,3 C 100 % 1008,9 hPa 0,0 l/m 0 min 0 min 0,0 UV-I 7 W/m 8,4 km/h (2 Bft)
29.07.2014 21:04 19,6 C 18,3 C 100 % 1008,9 hPa 0,0 l/m 0 min 0 min 0,0 UV-I 6 W/m 0,0 km/h (0 Bft)
29.07.2014 21:06 19,6 C 18,3 C 100 % 1008,9 hPa 0,0 l/m 0 min 0 min 0,0 UV-I 5 W/m 8,4 km/h (2 Bft)
29.07.2014 21:08 19,6 C 18,3 C 100 % 1008,8 hPa 0,0 l/m 0 min 0 min 0,0 UV-I 5 W/m 8,4 km/h (2 Bft)
29.07.2014 21:10 19,6 C 18,3 C 100 % 1008,8 hPa 0,0 l/m 0 min 0 min 0,0 UV-I 5 W/m 0,0 km/h (0 Bft)
29.07.2014 21:12 19,6 C 18,3 C 100 % 1008,8 hPa 0,0 l/m 0 min 0 min 0,0 UV-I 5 W/m 0,0 km/h (0 Bft)
29.07.2014 21:14 19,5 C 18,3 C 100 % 1008,8 hPa 0,0 l/m 0 min 0 min 0,0 UV-I 4 W/m 2,1 km/h (1 Bft)
29.07.2014 21:16 19,5 C 18,3 C 100 % 1008,8 hPa 0,0 l/m 0 min 0 min 0,0 UV-I 0 W/m 8,4 km/h (2 Bft)
29.07.2014 21:18 19,5 C 18,3 C 100 % 1008,9 hPa 0,0 l/m 0 min 0 min 0,0 UV-I 0 W/m 10,5 km/h (2 Bft)
29.07.2014 21:20 19,4 C 18,3 C 100 % 1008,9 hPa 0,0 l/m 0 min 0 min 0,0 UV-I 0 W/m 6,3 km/h (2 Bft)
29.07.2014 21:22 19,5 C 18,3 C 100 % 1009,0 hPa 0,0 l/m 0 min 0 min 0,0 UV-I 0 W/m 8,4 km/h (2 Bft)
29.07.2014 21:24 19,5 C 18,3 C 100 % 1009,0 hPa 0,0 l/m 0 min 0 min 0,0 UV-I 0 W/m 10,5 km/h (2 Bft)
29.07.2014 21:26 19,5 C 18,3 C 100 % 1009,1 hPa 0,0 l/m 0 min 0 min 0,0 UV-I 0 W/m 8,4 km/h (2 Bft)
29.07.2014 21:28 19,5 C 18,3 C 100 % 1009,1 hPa 0,0 l/m 0 min 0 min 0,0 UV-I 0 W/m 10,5 km/h (2 Bft)
29.07.2014 21:30 19,6 C 18,3 C 100 % 1009,2 hPa 0,0 l/m 0 min 0 min 0,0 UV-I 0 W/m 14,6 km/h (3 Bft)
29.07.2014 21:32 19,6 C 18,3 C 100 % 1009,3 hPa 0,0 l/m 0 min 0 min 0,0 UV-I 0 W/m 12,6 km/h (3 Bft)
29.07.2014 21:34 19,6 C 18,3 C 100 % 1009,2 hPa 0,0 l/m 0 min 0 min 0,0 UV-I 0 W/m 8,4 km/h (2 Bft)
29.07.2014 21:36 19,6 C 18,3 C 100 % 1009,3 hPa 0,0 l/m 0 min 0 min 0,0 UV-I 0 W/m 6,3 km/h (2 Bft)
29.07.2014 21:38 19,6 C 18,3 C 100 % 1009,3 hPa 0,0 l/m 0 min 0 min 0,0 UV-I 0 W/m 4,2 km/h (1 Bft)
29.07.2014 21:40 19,6 C 18,3 C 100 % 1009,2 hPa 0,0 l/m 0 min 0 min 0,0 UV-I 0 W/m 12,6 km/h (3 Bft)
29.07.2014 21:42 19,6 C 18,3 C 100 % 1009,2 hPa 0,0 l/m 0 min 0 min 0,0 UV-I 0 W/m 6,3 km/h (2 Bft)
29.07.2014 21:44 19,6 C 18,3 C 100 % 1009,2 hPa 0,0 l/m 0 min 0 min 0,0 UV-I 0 W/m 8,4 km/h (2 Bft)
29.07.2014 21:46 19,6 C 18,3 C 100 % 1009,2 hPa 0,0 l/m 0 min 0 min 0,0 UV-I 0 W/m 12,6 km/h (3 Bft)
29.07.2014 21:48 19,6 C 18,3 C 100 % 1009,2 hPa 0,0 l/m 0 min 0 min 0,0 UV-I 0 W/m 14,6 km/h (3 Bft)
29.07.2014 21:50 19,6 C 18,3 C 100 % 1009,2 hPa 0,0 l/m 0 min 0 min 0,0 UV-I 0 W/m 8,4 km/h (2 Bft)
29.07.2014 21:52 19,6 C 18,3 C 100 % 1009,2 hPa 0,0 l/m 0 min 0 min 0,0 UV-I 0 W/m 8,4 km/h (2 Bft)
29.07.2014 21:54 19,6 C 18,3 C 100 % 1009,2 hPa 0,0 l/m 0 min 0 min 0,0 UV-I 0 W/m 0,0 km/h (0 Bft)
29.07.2014 21:56 19,6 C 18,3 C 100 % 1009,3 hPa 0,0 l/m 0 min 0 min 0,0 UV-I 0 W/m 0,0 km/h (0 Bft)
29.07.2014 21:58 19,6 C 18,3 C 100 % 1009,3 hPa 0,0 l/m 0 min 0 min 0,0 UV-I 0 W/m 2,1 km/h (1 Bft)
29.07.2014 22:00 19,6 C 18,3 C 100 % 1009,4 hPa 0,0 l/m 0 min 0 min 0,0 UV-I 0 W/m 0,0 km/h (0 Bft)
29.07.2014 22:02 19,7 C 18,3 C 100 % 1009,4 hPa 0,0 l/m 0 min 0 min 0,0 UV-I 0 W/m 0,0 km/h (0 Bft)
29.07.2014 22:04 19,7 C 18,3 C 100 % 1009,4 hPa 0,0 l/m 0 min 0 min 0,0 UV-I 0 W/m 8,4 km/h (2 Bft)
29.07.2014 22:06 19,7 C 18,3 C 100 % 1009,4 hPa 0,0 l/m 0 min 0 min 0,0 UV-I 0 W/m 10,5 km/h (2 Bft)
29.07.2014 22:08 19,7 C 18,3 C 100 % 1009,4 hPa 0,0 l/m 0 min 0 min 0,0 UV-I 0 W/m 12,6 km/h (3 Bft)
29.07.2014 22:10 19,8 C 18,3 C 100 % 1009,4 hPa 0,0 l/m 0 min 0 min 0,0 UV-I 0 W/m 10,5 km/h (2 Bft)
29.07.2014 22:12 19,8 C 18,3 C 100 % 1009,4 hPa 0,0 l/m 0 min 0 min 0,0 UV-I 0 W/m 10,5 km/h (2 Bft)
29.07.2014 22:14 19,8 C 18,3 C 100 % 1009,4 hPa 0,0 l/m 0 min 0 min 0,0 UV-I 0 W/m 10,5 km/h (2 Bft)
29.07.2014 22:16 19,9 C 18,3 C 100 % 1009,4 hPa 0,0 l/m 0 min 0 min 0,0 UV-I 0 W/m 10,5 km/h (2 Bft)
29.07.2014 22:18 19,9 C 18,3 C 100 % 1009,4 hPa 0,0 l/m 0 min 0 min 0,0 UV-I 0 W/m 10,5 km/h (2 Bft)
29.07.2014 22:20 19,9 C 18,3 C 100 % 1009,4 hPa 0,0 l/m 0 min 0 min 0,0 UV-I 0 W/m 14,6 km/h (3 Bft)
29.07.2014 22:22 19,9 C 18,9 C 100 % 1009,4 hPa 0,0 l/m 0 min 0 min 0,0 UV-I 0 W/m 16,7 km/h (3 Bft)
29.07.2014 22:24 20,0 C 18,9 C 100 % 1009,5 hPa 0,0 l/m 0 min 0 min 0,0 UV-I 0 W/m 14,6 km/h (3 Bft)
29.07.2014 22:26 20,1 C 18,9 C 100 % 1009,5 hPa 0,0 l/m 0 min 0 min 0,0 UV-I 0 W/m 18,8 km/h (3 Bft)
29.07.2014 22:28 20,1 C 18,9 C 100 % 1009,5 hPa 0,0 l/m 0 min 0 min 0,0 UV-I 0 W/m 18,8 km/h (3 Bft)
29.07.2014 22:30 20,1 C 18,9 C 100 % 1009,6 hPa 0,0 l/m 0 min 0 min 0,0 UV-I 0 W/m 20,9 km/h (4 Bft)
29.07.2014 22:32 20,1 C 18,9 C 100 % 1009,7 hPa 0,0 l/m 0 min 0 min 0,0 UV-I 0 W/m 16,7 km/h (3 Bft)
29.07.2014 22:34 20,1 C 18,9 C 100 % 1009,7 hPa 0,0 l/m 0 min 0 min 0,0 UV-I 0 W/m 14,6 km/h (3 Bft)
29.07.2014 22:36 20,2 C 18,9 C 100 % 1009,7 hPa 0,0 l/m 0 min 0 min 0,0 UV-I 0 W/m 18,8 km/h (3 Bft)
29.07.2014 22:38 20,2 C 18,9 C 100 % 1009,7 hPa 0,0 l/m 0 min 0 min 0,0 UV-I 0 W/m 16,7 km/h (3 Bft)
29.07.2014 22:40 20,2 C 18,9 C 100 % 1009,7 hPa 0,0 l/m 0 min 0 min 0,0 UV-I 0 W/m 18,8 km/h (3 Bft)
29.07.2014 22:42 20,2 C 18,9 C 100 % 1009,7 hPa 0,0 l/m 0 min 0 min 0,0 UV-I 0 W/m 29,3 km/h (5 Bft)
29.07.2014 22:44 20,3 C 18,9 C 100 % 1009,7 hPa 0,0 l/m 0 min 0 min 0,0 UV-I 0 W/m 12,6 km/h (3 Bft)
29.07.2014 22:46 20,3 C 18,9 C 100 % 1009,7 hPa 0,0 l/m 0 min 0 min 0,0 UV-I 0 W/m 23,0 km/h (4 Bft)
29.07.2014 22:48 20,4 C 18,9 C 100 % 1009,7 hPa 0,0 l/m 0 min 0 min 0,0 UV-I 0 W/m 16,7 km/h (3 Bft)
29.07.2014 22:50 20,4 C 18,9 C 99 % 1009,7 hPa 0,0 l/m 0 min 0 min 0,0 UV-I 0 W/m 27,2 km/h (4 Bft)
29.07.2014 22:52 20,4 C 18,9 C 99 % 1009,7 hPa 0,0 l/m 0 min 0 min 0,0 UV-I 0 W/m 25,1 km/h (4 Bft)
29.07.2014 22:54 20,4 C 18,9 C 99 % 1009,7 hPa 0,0 l/m 0 min 0 min 0,0 UV-I 0 W/m 25,1 km/h (4 Bft)
29.07.2014 22:56 20,4 C 18,9 C 99 % 1009,6 hPa 0,0 l/m 0 min 0 min 0,0 UV-I 0 W/m 16,7 km/h (3 Bft)
29.07.2014 22:58 20,5 C 18,9 C 99 % 1009,7 hPa 0,0 l/m 0 min 0 min 0,0 UV-I 0 W/m 23,0 km/h (4 Bft)
29.07.2014 23:00 20,6 C 18,9 C 99 % 1009,6 hPa 0,0 l/m 0 min 0 min 0,0 UV-I 0 W/m 18,8 km/h (3 Bft)
29.07.2014 23:02 20,6 C 18,9 C 99 % 1009,7 hPa 0,0 l/m 0 min 0 min 0,0 UV-I 0 W/m 16,7 km/h (3 Bft)
29.07.2014 23:04 20,7 C 18,9 C 98 % 1009,6 hPa 0,0 l/m 0 min 0 min 0,0 UV-I 0 W/m 16,7 km/h (3 Bft)
29.07.2014 23:06 20,7 C 18,9 C 98 % 1009,6 hPa 0,0 l/m 0 min 0 min 0,0 UV-I 0 W/m 18,8 km/h (3 Bft)
29.07.2014 23:08 20,7 C 18,9 C 97 % 1009,6 hPa 0,0 l/m 0 min 0 min 0,0 UV-I 0 W/m 14,6 km/h (3 Bft)
29.07.2014 23:10 20,7 C 18,9 C 97 % 1009,7 hPa 0,0 l/m 0 min 0 min 0,0 UV-I 0 W/m 14,6 km/h (3 Bft)
29.07.2014 23:12 20,7 C 18,9 C 97 % 1009,6 hPa 0,0 l/m 0 min 0 min 0,0 UV-I 0 W/m 18,8 km/h (3 Bft)
29.07.2014 23:14 20,7 C 18,9 C 96 % 1009,7 hPa 0,0 l/m 0 min 0 min 0,0 UV-I 0 W/m 12,6 km/h (3 Bft)
29.07.2014 23:16 20,6 C 18,9 C 96 % 1009,7 hPa 0,0 l/m 0 min 0 min 0,0 UV-I 0 W/m 14,6 km/h (3 Bft)
29.07.2014 23:18 20,6 C 18,9 C 96 % 1009,7 hPa 0,0 l/m 0 min 0 min 0,0 UV-I 0 W/m 8,4 km/h (2 Bft)
29.07.2014 23:20 20,6 C 18,9 C 96 % 1009,7 hPa 0,0 l/m 0 min 0 min 0,0 UV-I 0 W/m 10,5 km/h (2 Bft)
29.07.2014 23:22 20,5 C 18,9 C 96 % 1009,7 hPa 0,0 l/m 0 min 0 min 0,0 UV-I 0 W/m 8,4 km/h (2 Bft)
29.07.2014 23:24 20,4 C 18,3 C 96 % 1009,8 hPa 0,0 l/m 0 min 0 min 0,0 UV-I 0 W/m 2,1 km/h (1 Bft)
29.07.2014 23:26 20,4 C 18,3 C 96 % 1009,8 hPa 0,0 l/m 0 min 0 min 0,0 UV-I 0 W/m 2,1 km/h (1 Bft)
29.07.2014 23:28 20,4 C 18,3 C 96 % 1009,7 hPa 0,0 l/m 0 min 0 min 0,0 UV-I 0 W/m 2,1 km/h (1 Bft)
29.07.2014 23:30 20,3 C 18,3 C 96 % 1009,8 hPa 0,0 l/m 0 min 0 min 0,0 UV-I 0 W/m 0,0 km/h (0 Bft)
29.07.2014 23:32 20,3 C 18,3 C 96 % 1009,9 hPa 0,0 l/m 0 min 0 min 0,0 UV-I 0 W/m 0,0 km/h (0 Bft)
29.07.2014 23:34 20,2 C 18,3 C 96 % 1009,8 hPa 0,0 l/m 0 min 0 min 0,0 UV-I 0 W/m 0,0 km/h (0 Bft)
29.07.2014 23:36 20,2 C 18,3 C 96 % 1009,9 hPa 0,0 l/m 0 min 0 min 0,0 UV-I 0 W/m 0,0 km/h (0 Bft)
29.07.2014 23:38 20,2 C 18,3 C 96 % 1009,9 hPa 0,0 l/m 0 min 0 min 0,0 UV-I 0 W/m 8,4 km/h (2 Bft)
29.07.2014 23:40 20,1 C 18,3 C 97 % 1009,9 hPa 0,0 l/m 0 min 0 min 0,0 UV-I 0 W/m 0,0 km/h (0 Bft)
29.07.2014 23:42 20,1 C 18,3 C 97 % 1009,9 hPa 0,0 l/m 0 min 0 min 0,0 UV-I 0 W/m 0,0 km/h (0 Bft)
29.07.2014 23:44 20,1 C 18,3 C 97 % 1009,9 hPa 0,0 l/m 0 min 0 min 0,0 UV-I 0 W/m 0,0 km/h (0 Bft)
29.07.2014 23:46 20,1 C 18,3 C 97 % 1010,0 hPa 0,0 l/m 0 min 0 min 0,0 UV-I 0 W/m 8,4 km/h (2 Bft)
29.07.2014 23:48 20,1 C 18,3 C 97 % 1009,9 hPa 0,0 l/m 0 min 0 min 0,0 UV-I 0 W/m 6,3 km/h (2 Bft)
29.07.2014 23:50 20,1 C 18,3 C 98 % 1010,0 hPa 0,0 l/m 0 min 0 min 0,0 UV-I 0 W/m 6,3 km/h (2 Bft)
29.07.2014 23:52 20,1 C 18,9 C 98 % 1010,1 hPa 0,0 l/m 0 min 0 min 0,0 UV-I 0 W/m 2,1 km/h (1 Bft)
29.07.2014 23:54 20,1 C 18,9 C 98 % 1010,1 hPa 0,0 l/m 0 min 0 min 0,0 UV-I 0 W/m 2,1 km/h (1 Bft)
29.07.2014 23:56 20,1 C 18,9 C 98 % 1010,0 hPa 0,0 l/m 0 min 0 min 0,0 UV-I 0 W/m 10,5 km/h (2 Bft)
29.07.2014 23:58 20,1 C 18,9 C 98 % 1010,0 hPa 0,0 l/m 0 min 0 min 0,0 UV-I 0 W/m 0,0 km/h (0 Bft)
_ Min-Zeit 04:38 03:52 14:18 18:46 - - - - - 00:02
Minimum _ 16,8 C 15,6 C 73 % 1008,1 hPa - - - - - 0,0 km/h (0 Bft)
_ Max-Zeit 14:14 12:32 00:36 00:02 15:04 10:06 06:22 14:10 14:18 15:02
Maximum _ 26,9 C 26,7 C 100 % 1010,9 hPa 5,8 l/m 2 min 2 min 4,5 UV-I 862 W/m 90,0 km/h
O-NO (10 Bft)
Durchschnitt _ 19,8 C 18,7 C 97 % 1009,7 hPa #41,6 l/m #2:30 h #2:20 h 2,1 UV-I 173 W/m 7,9 km/h (2 Bft)
© 2014 W. Hausmann